<?xml version='1.0' encoding='UTF-8'?><gpx version="1.1" creator="JPX - https://github.com/jenetics/jpx" xmlns="http://www.topografix.com/GPX/1/1"><trk><trkseg><trkpt lat="45.6317074" lon="11.5449301"><ele>51.0</ele><time>2026-04-04T07:26:15.278Z</time></trkpt><trkpt lat="45.6316905" lon="11.5450276"><ele>51.0</ele><time>2026-04-04T07:29:13.285Z</time></trkpt><trkpt lat="45.6316954" lon="11.5452354"><ele>51.0</ele><time>2026-04-04T07:29:21.283Z</time></trkpt><trkpt lat="45.6317351" lon="11.5453178"><ele>51.0</ele><time>2026-04-04T07:29:30.284Z</time></trkpt><trkpt lat="45.6317938" lon="11.5453527"><ele>51.0</ele><time>2026-04-04T07:29:32.286Z</time></trkpt><trkpt lat="45.6318585" lon="11.545365"><ele>51.0</ele><time>2026-04-04T07:29:34.287Z</time></trkpt><trkpt lat="45.6320234" lon="11.5453899"><ele>51.166666666666664</ele><time>2026-04-04T07:29:38.283Z</time></trkpt><trkpt lat="45.6320998" lon="11.5453958"><ele>51.33333333333333</ele><time>2026-04-04T07:29:40.278Z</time></trkpt><trkpt lat="45.6321738" lon="11.5454058"><ele>51.5</ele><time>2026-04-04T07:29:42.275Z</time></trkpt><trkpt lat="45.6322512" lon="11.5454132"><ele>51.666666666666664</ele><time>2026-04-04T07:29:44.283Z</time></trkpt><trkpt lat="45.6323255" lon="11.545423"><ele>51.83333333333333</ele><time>2026-04-04T07:29:46.28Z</time></trkpt><trkpt lat="45.6324016" lon="11.5454446"><ele>52.0</ele><time>2026-04-04T07:29:48.282Z</time></trkpt><trkpt lat="45.6324742" lon="11.5454927"><ele>52.0</ele><time>2026-04-04T07:29:50.282Z</time></trkpt><trkpt lat="45.632541" lon="11.5455616"><ele>52.0</ele><time>2026-04-04T07:29:52.281Z</time></trkpt><trkpt lat="45.6325837" lon="11.5456634"><ele>52.0</ele><time>2026-04-04T07:29:54.282Z</time></trkpt><trkpt lat="45.632614" lon="11.5457789"><ele>52.0</ele><time>2026-04-04T07:29:56.282Z</time></trkpt><trkpt lat="45.6326683" lon="11.5459962"><ele>52.0</ele><time>2026-04-04T07:30:00.282Z</time></trkpt><trkpt lat="45.6326943" lon="11.5461067"><ele>51.99999999999999</ele><time>2026-04-04T07:30:02.281Z</time></trkpt><trkpt lat="45.6327204" lon="11.5462231"><ele>52.0</ele><time>2026-04-04T07:30:04.281Z</time></trkpt><trkpt lat="45.6327475" lon="11.5463371"><ele>52.0</ele><time>2026-04-04T07:30:06.284Z</time></trkpt><trkpt lat="45.6327741" lon="11.5464515"><ele>52.0</ele><time>2026-04-04T07:30:08.281Z</time></trkpt><trkpt lat="45.6328002" lon="11.5465665"><ele>51.99999999999999</ele><time>2026-04-04T07:30:10.282Z</time></trkpt><trkpt lat="45.6328258" lon="11.5466778"><ele>52.0</ele><time>2026-04-04T07:30:12.282Z</time></trkpt><trkpt lat="45.632862" lon="11.5467786"><ele>52.0</ele><time>2026-04-04T07:30:14.282Z</time></trkpt><trkpt lat="45.6329193" lon="11.5468544"><ele>52.0</ele><time>2026-04-04T07:30:16.284Z</time></trkpt><trkpt lat="45.6329942" lon="11.5469051"><ele>52.0</ele><time>2026-04-04T07:30:18.283Z</time></trkpt><trkpt lat="45.6331485" lon="11.5469833"><ele>52.0</ele><time>2026-04-04T07:30:22.284Z</time></trkpt><trkpt lat="45.6332232" lon="11.547023"><ele>52.0</ele><time>2026-04-04T07:30:24.283Z</time></trkpt><trkpt lat="45.6332981" lon="11.5470609"><ele>52.14285714285714</ele><time>2026-04-04T07:30:26.28Z</time></trkpt><trkpt lat="45.6333707" lon="11.5470983"><ele>52.28571428571429</ele><time>2026-04-04T07:30:28.281Z</time></trkpt><trkpt lat="45.6334454" lon="11.5471377"><ele>52.42857142857143</ele><time>2026-04-04T07:30:30.283Z</time></trkpt><trkpt lat="45.6335185" lon="11.5471702"><ele>52.57142857142857</ele><time>2026-04-04T07:30:32.284Z</time></trkpt><trkpt lat="45.6335912" lon="11.5471977"><ele>52.71428571428571</ele><time>2026-04-04T07:30:34.28Z</time></trkpt><trkpt lat="45.6336554" lon="11.5472371"><ele>52.85714285714286</ele><time>2026-04-04T07:30:36.281Z</time></trkpt><trkpt lat="45.6337206" lon="11.5472776"><ele>53.0</ele><time>2026-04-04T07:30:38.282Z</time></trkpt><trkpt lat="45.6337829" lon="11.5473137"><ele>53.2</ele><time>2026-04-04T07:30:40.282Z</time></trkpt><trkpt lat="45.633919" lon="11.5473677"><ele>53.4</ele><time>2026-04-04T07:30:44.281Z</time></trkpt><trkpt lat="45.6339942" lon="11.5473835"><ele>53.60000000000001</ele><time>2026-04-04T07:30:46.282Z</time></trkpt><trkpt lat="45.6340767" lon="11.5473974"><ele>53.800000000000004</ele><time>2026-04-04T07:30:48.283Z</time></trkpt><trkpt lat="45.6341584" lon="11.5474276"><ele>54.0</ele><time>2026-04-04T07:30:50.283Z</time></trkpt><trkpt lat="45.6342429" lon="11.5474539"><ele>54.0</ele><time>2026-04-04T07:30:52.283Z</time></trkpt><trkpt lat="45.6343258" lon="11.5474852"><ele>54.0</ele><time>2026-04-04T07:30:54.284Z</time></trkpt><trkpt lat="45.6344071" lon="11.5475265"><ele>54.0</ele><time>2026-04-04T07:30:56.28Z</time></trkpt><trkpt lat="45.6344841" lon="11.5475855"><ele>54.0</ele><time>2026-04-04T07:30:58.282Z</time></trkpt><trkpt lat="45.6345536" lon="11.5476509"><ele>54.0</ele><time>2026-04-04T07:31:00.283Z</time></trkpt><trkpt lat="45.6346044" lon="11.5477423"><ele>54.0</ele><time>2026-04-04T07:31:02.283Z</time></trkpt><trkpt lat="45.6346644" lon="11.547961"><ele>54.333333333333336</ele><time>2026-04-04T07:31:06.282Z</time></trkpt><trkpt lat="45.6346982" lon="11.5480651"><ele>54.66666666666667</ele><time>2026-04-04T07:31:08.283Z</time></trkpt><trkpt lat="45.6347355" lon="11.5481615"><ele>55.0</ele><time>2026-04-04T07:31:10.283Z</time></trkpt><trkpt lat="45.6347752" lon="11.5482601"><ele>55.333333333333336</ele><time>2026-04-04T07:31:12.281Z</time></trkpt><trkpt lat="45.6348056" lon="11.5483627"><ele>55.66666666666667</ele><time>2026-04-04T07:31:14.283Z</time></trkpt><trkpt lat="45.6348347" lon="11.5484696"><ele>56.0</ele><time>2026-04-04T07:31:16.283Z</time></trkpt><trkpt lat="45.6348729" lon="11.548571"><ele>56.0</ele><time>2026-04-04T07:31:18.284Z</time></trkpt><trkpt lat="45.6349094" lon="11.548675"><ele>55.99999999999999</ele><time>2026-04-04T07:31:20.282Z</time></trkpt><trkpt lat="45.6349413" lon="11.5487586"><ele>55.99999999999999</ele><time>2026-04-04T07:31:22.286Z</time></trkpt><trkpt lat="45.6350073" lon="11.5488071"><ele>56.0</ele><time>2026-04-04T07:31:24.284Z</time></trkpt><trkpt lat="45.6351755" lon="11.5488163"><ele>56.0</ele><time>2026-04-04T07:31:28.284Z</time></trkpt><trkpt lat="45.6352563" lon="11.5488052"><ele>56.333333333333336</ele><time>2026-04-04T07:31:30.286Z</time></trkpt><trkpt lat="45.6353376" lon="11.5487926"><ele>56.66666666666667</ele><time>2026-04-04T07:31:32.282Z</time></trkpt><trkpt lat="45.6354163" lon="11.5488054"><ele>57.0</ele><time>2026-04-04T07:31:34.286Z</time></trkpt><trkpt lat="45.6354951" lon="11.5488276"><ele>57.33333333333333</ele><time>2026-04-04T07:31:36.283Z</time></trkpt><trkpt lat="45.6355693" lon="11.5488556"><ele>57.666666666666664</ele><time>2026-04-04T07:31:38.285Z</time></trkpt><trkpt lat="45.6356462" lon="11.5488793"><ele>58.0</ele><time>2026-04-04T07:31:40.288Z</time></trkpt><trkpt lat="45.6357195" lon="11.5489074"><ele>58.0</ele><time>2026-04-04T07:31:42.285Z</time></trkpt><trkpt lat="45.6357972" lon="11.5489351"><ele>58.0</ele><time>2026-04-04T07:31:44.283Z</time></trkpt><trkpt lat="45.6358753" lon="11.5489583"><ele>58.0</ele><time>2026-04-04T07:31:46.282Z</time></trkpt><trkpt lat="45.636028" lon="11.5490231"><ele>58.0</ele><time>2026-04-04T07:31:50.28Z</time></trkpt><trkpt lat="45.6361008" lon="11.5490555"><ele>58.0</ele><time>2026-04-04T07:31:52.282Z</time></trkpt><trkpt lat="45.6361729" lon="11.5490954"><ele>57.99999999999999</ele><time>2026-04-04T07:31:54.283Z</time></trkpt><trkpt lat="45.6362448" lon="11.549136"><ele>58.0</ele><time>2026-04-04T07:31:56.283Z</time></trkpt><trkpt lat="45.6363186" lon="11.549179"><ele>58.0</ele><time>2026-04-04T07:31:58.283Z</time></trkpt><trkpt lat="45.6363914" lon="11.5492332"><ele>58.0</ele><time>2026-04-04T07:32:00.283Z</time></trkpt><trkpt lat="45.6364613" lon="11.5492944"><ele>57.99999999999999</ele><time>2026-04-04T07:32:02.284Z</time></trkpt><trkpt lat="45.6365284" lon="11.5493595"><ele>58.0</ele><time>2026-04-04T07:32:04.286Z</time></trkpt><trkpt lat="45.6365953" lon="11.5494218"><ele>58.0</ele><time>2026-04-04T07:32:06.283Z</time></trkpt><trkpt lat="45.6366698" lon="11.549479"><ele>58.0</ele><time>2026-04-04T07:32:08.285Z</time></trkpt><trkpt lat="45.6368317" lon="11.5495736"><ele>58.0</ele><time>2026-04-04T07:32:12.282Z</time></trkpt><trkpt lat="45.6369076" lon="11.549627"><ele>58.0</ele><time>2026-04-04T07:32:14.285Z</time></trkpt><trkpt lat="45.636986" lon="11.5496802"><ele>58.0</ele><time>2026-04-04T07:32:16.283Z</time></trkpt><trkpt lat="45.6370645" lon="11.5497289"><ele>58.4</ele><time>2026-04-04T07:32:18.285Z</time></trkpt><trkpt lat="45.6371447" lon="11.5497823"><ele>58.8</ele><time>2026-04-04T07:32:20.283Z</time></trkpt><trkpt lat="45.6372268" lon="11.5498406"><ele>59.2</ele><time>2026-04-04T07:32:22.283Z</time></trkpt><trkpt lat="45.6373155" lon="11.5498914"><ele>59.6</ele><time>2026-04-04T07:32:24.285Z</time></trkpt><trkpt lat="45.6374019" lon="11.5499452"><ele>60.0</ele><time>2026-04-04T07:32:26.283Z</time></trkpt><trkpt lat="45.6374806" lon="11.5499888"><ele>60.0</ele><time>2026-04-04T07:32:28.284Z</time></trkpt><trkpt lat="45.6375663" lon="11.5500381"><ele>60.0</ele><time>2026-04-04T07:32:30.283Z</time></trkpt><trkpt lat="45.6377269" lon="11.5501382"><ele>60.0</ele><time>2026-04-04T07:32:34.283Z</time></trkpt><trkpt lat="45.6378091" lon="11.5502052"><ele>60.0</ele><time>2026-04-04T07:32:36.282Z</time></trkpt><trkpt lat="45.6378873" lon="11.5502605"><ele>60.0</ele><time>2026-04-04T07:32:38.283Z</time></trkpt><trkpt lat="45.6379651" lon="11.550311"><ele>59.833333333333336</ele><time>2026-04-04T07:32:40.285Z</time></trkpt><trkpt lat="45.6380495" lon="11.550361"><ele>59.66666666666667</ele><time>2026-04-04T07:32:42.284Z</time></trkpt><trkpt lat="45.6381321" lon="11.5504162"><ele>59.5</ele><time>2026-04-04T07:32:44.284Z</time></trkpt><trkpt lat="45.638213" lon="11.5504708"><ele>59.333333333333336</ele><time>2026-04-04T07:32:46.284Z</time></trkpt><trkpt lat="45.6382907" lon="11.55052"><ele>59.16666666666667</ele><time>2026-04-04T07:32:48.284Z</time></trkpt><trkpt lat="45.6383725" lon="11.5505756"><ele>59.0</ele><time>2026-04-04T07:32:50.286Z</time></trkpt><trkpt lat="45.6384522" lon="11.5506277"><ele>59.0</ele><time>2026-04-04T07:32:52.284Z</time></trkpt></trkseg><trkseg><trkpt lat="45.6630546" lon="11.5484734"><ele>106.0</ele><time>2026-04-04T08:39:35.573Z</time></trkpt><trkpt lat="45.6630226" lon="11.5483686"><ele>106.0</ele><time>2026-04-04T08:39:38.569Z</time></trkpt><trkpt lat="45.663021" lon="11.5482532"><ele>106.0</ele><time>2026-04-04T08:39:42.569Z</time></trkpt><trkpt lat="45.6630038" lon="11.5481606"><ele>106.0</ele><time>2026-04-04T08:39:46.57Z</time></trkpt><trkpt lat="45.6629386" lon="11.5481446"><ele>106.0</ele><time>2026-04-04T08:39:54.57Z</time></trkpt><trkpt lat="45.6628748" lon="11.5481604"><ele>106.0</ele><time>2026-04-04T08:39:57.57Z</time></trkpt><trkpt lat="45.6628032" lon="11.5481555"><ele>106.0</ele><time>2026-04-04T08:40:00.572Z</time></trkpt><trkpt lat="45.6627278" lon="11.5481043"><ele>106.16666666666667</ele><time>2026-04-04T08:40:03.574Z</time></trkpt><trkpt lat="45.6626764" lon="11.5480429"><ele>106.33333333333334</ele><time>2026-04-04T08:40:05.571Z</time></trkpt><trkpt lat="45.6626289" lon="11.5479565"><ele>106.5</ele><time>2026-04-04T08:40:07.573Z</time></trkpt><trkpt lat="45.6625841" lon="11.5478497"><ele>106.66666666666666</ele><time>2026-04-04T08:40:09.571Z</time></trkpt><trkpt lat="45.6625382" lon="11.5477453"><ele>106.83333333333333</ele><time>2026-04-04T08:40:11.571Z</time></trkpt><trkpt lat="45.662482" lon="11.5476257"><ele>107.0</ele><time>2026-04-04T08:40:13.571Z</time></trkpt><trkpt lat="45.6624141" lon="11.54751"><ele>105.39999999999999</ele><time>2026-04-04T08:40:15.562Z</time></trkpt><trkpt lat="45.662346" lon="11.547417"><ele>103.79999999999998</ele><time>2026-04-04T08:40:17.57Z</time></trkpt><trkpt lat="45.6622693" lon="11.5473413"><ele>102.2</ele><time>2026-04-04T08:40:19.573Z</time></trkpt><trkpt lat="45.6621748" lon="11.5473089"><ele>100.6</ele><time>2026-04-04T08:40:21.571Z</time></trkpt><trkpt lat="45.6621063" lon="11.5472794"><ele>99.0</ele><time>2026-04-04T08:40:22.562Z</time></trkpt><trkpt lat="45.6620133" lon="11.5473258"><ele>97.0</ele><time>2026-04-04T08:40:24.569Z</time></trkpt><trkpt lat="45.661911" lon="11.5474114"><ele>95.0</ele><time>2026-04-04T08:40:26.569Z</time></trkpt><trkpt lat="45.6617983" lon="11.5474845"><ele>93.0</ele><time>2026-04-04T08:40:28.57Z</time></trkpt><trkpt lat="45.6616921" lon="11.5475354"><ele>91.0</ele><time>2026-04-04T08:40:30.57Z</time></trkpt><trkpt lat="45.6616071" lon="11.5475831"><ele>89.0</ele><time>2026-04-04T08:40:32.569Z</time></trkpt><trkpt lat="45.6615362" lon="11.547623"><ele>88.99999999999999</ele><time>2026-04-04T08:40:34.572Z</time></trkpt><trkpt lat="45.6614732" lon="11.5476595"><ele>89.0</ele><time>2026-04-04T08:40:37.57Z</time></trkpt><trkpt lat="45.6615355" lon="11.5476142"><ele>89.0</ele><time>2026-04-04T08:40:42.57Z</time></trkpt><trkpt lat="45.6614661" lon="11.5476526"><ele>89.0</ele><time>2026-04-04T08:40:46.566Z</time></trkpt><trkpt lat="45.6614167" lon="11.5477164"><ele>89.0</ele><time>2026-04-04T08:40:49.569Z</time></trkpt><trkpt lat="45.6613637" lon="11.5477737"><ele>88.99999999999999</ele><time>2026-04-04T08:40:52.57Z</time></trkpt><trkpt lat="45.6613253" lon="11.5478725"><ele>89.0</ele><time>2026-04-04T08:40:56.569Z</time></trkpt><trkpt lat="45.6613497" lon="11.547961"><ele>89.85714285714285</ele><time>2026-04-04T08:41:00.571Z</time></trkpt><trkpt lat="45.661342" lon="11.5480691"><ele>90.71428571428571</ele><time>2026-04-04T08:41:06.573Z</time></trkpt><trkpt lat="45.6613496" lon="11.5481626"><ele>91.57142857142857</ele><time>2026-04-04T08:41:11.569Z</time></trkpt><trkpt lat="45.6613482" lon="11.5482613"><ele>92.42857142857142</ele><time>2026-04-04T08:41:18.572Z</time></trkpt><trkpt lat="45.6613616" lon="11.5483662"><ele>93.28571428571429</ele><time>2026-04-04T08:41:23.573Z</time></trkpt><trkpt lat="45.661383" lon="11.5484571"><ele>94.14285714285714</ele><time>2026-04-04T08:41:27.571Z</time></trkpt><trkpt lat="45.6613797" lon="11.5485567"><ele>95.0</ele><time>2026-04-04T08:41:32.569Z</time></trkpt><trkpt lat="45.6613833" lon="11.5486569"><ele>96.0</ele><time>2026-04-04T08:41:37.572Z</time></trkpt><trkpt lat="45.6613964" lon="11.5487526"><ele>97.0</ele><time>2026-04-04T08:41:42.571Z</time></trkpt><trkpt lat="45.6613965" lon="11.5488477"><ele>98.0</ele><time>2026-04-04T08:41:47.573Z</time></trkpt><trkpt lat="45.6613912" lon="11.5489427"><ele>99.0</ele><time>2026-04-04T08:41:51.57Z</time></trkpt><trkpt lat="45.6614081" lon="11.5490331"><ele>100.0</ele><time>2026-04-04T08:41:56.572Z</time></trkpt><trkpt lat="45.6614185" lon="11.5491315"><ele>101.0</ele><time>2026-04-04T08:42:01.573Z</time></trkpt><trkpt lat="45.6614167" lon="11.5492223"><ele>102.0</ele><time>2026-04-04T08:42:06.573Z</time></trkpt><trkpt lat="45.6614167" lon="11.5493259"><ele>102.0</ele><time>2026-04-04T08:42:11.569Z</time></trkpt><trkpt lat="45.6614381" lon="11.5494128"><ele>102.0</ele><time>2026-04-04T08:42:16.571Z</time></trkpt><trkpt lat="45.6614424" lon="11.5495044"><ele>102.0</ele><time>2026-04-04T08:42:20.571Z</time></trkpt><trkpt lat="45.6614359" lon="11.5496216"><ele>102.0</ele><time>2026-04-04T08:42:24.571Z</time></trkpt><trkpt lat="45.6614366" lon="11.549729"><ele>102.0</ele><time>2026-04-04T08:42:28.573Z</time></trkpt><trkpt lat="45.6614506" lon="11.5498173"><ele>102.0</ele><time>2026-04-04T08:42:32.571Z</time></trkpt><trkpt lat="45.6614524" lon="11.5499089"><ele>102.0</ele><time>2026-04-04T08:42:36.571Z</time></trkpt><trkpt lat="45.6614579" lon="11.5500267"><ele>102.57142857142857</ele><time>2026-04-04T08:42:40.571Z</time></trkpt><trkpt lat="45.6614605" lon="11.5501206"><ele>103.14285714285714</ele><time>2026-04-04T08:42:44.572Z</time></trkpt><trkpt lat="45.6614602" lon="11.5502189"><ele>103.71428571428572</ele><time>2026-04-04T08:42:48.57Z</time></trkpt><trkpt lat="45.6614785" lon="11.5503297"><ele>104.28571428571428</ele><time>2026-04-04T08:42:52.569Z</time></trkpt><trkpt lat="45.6614875" lon="11.5504415"><ele>104.85714285714285</ele><time>2026-04-04T08:42:56.57Z</time></trkpt><trkpt lat="45.6614917" lon="11.5505343"><ele>105.42857142857143</ele><time>2026-04-04T08:42:59.573Z</time></trkpt><trkpt lat="45.6615027" lon="11.5506455"><ele>106.0</ele><time>2026-04-04T08:43:03.572Z</time></trkpt><trkpt lat="45.6615113" lon="11.5507446"><ele>106.28571428571429</ele><time>2026-04-04T08:43:07.569Z</time></trkpt><trkpt lat="45.6615283" lon="11.5508382"><ele>106.57142857142857</ele><time>2026-04-04T08:43:12.569Z</time></trkpt><trkpt lat="45.6615853" lon="11.5508805"><ele>106.85714285714286</ele><time>2026-04-04T08:43:15.57Z</time></trkpt><trkpt lat="45.6616562" lon="11.5508838"><ele>107.14285714285714</ele><time>2026-04-04T08:43:20.57Z</time></trkpt><trkpt lat="45.6616712" lon="11.5507864"><ele>107.42857142857142</ele><time>2026-04-04T08:43:28.57Z</time></trkpt><trkpt lat="45.6617291" lon="11.5507499"><ele>107.71428571428571</ele><time>2026-04-04T08:43:33.571Z</time></trkpt><trkpt lat="45.6618026" lon="11.5507623"><ele>108.0</ele><time>2026-04-04T08:43:39.566Z</time></trkpt><trkpt lat="45.6618623" lon="11.5507925"><ele>108.0</ele><time>2026-04-04T08:43:44.572Z</time></trkpt><trkpt lat="45.6619334" lon="11.5508166"><ele>108.0</ele><time>2026-04-04T08:43:49.573Z</time></trkpt><trkpt lat="45.6619972" lon="11.550851"><ele>108.0</ele><time>2026-04-04T08:43:55.569Z</time></trkpt><trkpt lat="45.6620645" lon="11.5508953"><ele>108.0</ele><time>2026-04-04T08:44:01.57Z</time></trkpt><trkpt lat="45.6621339" lon="11.5509269"><ele>108.0</ele><time>2026-04-04T08:44:07.57Z</time></trkpt><trkpt lat="45.662196" lon="11.5509611"><ele>108.0</ele><time>2026-04-04T08:44:12.57Z</time></trkpt><trkpt lat="45.662268" lon="11.550988"><ele>108.0</ele><time>2026-04-04T08:44:17.57Z</time></trkpt><trkpt lat="45.6623386" lon="11.5510167"><ele>109.42857142857143</ele><time>2026-04-04T08:44:22.572Z</time></trkpt><trkpt lat="45.6624109" lon="11.5510483"><ele>110.85714285714286</ele><time>2026-04-04T08:44:27.569Z</time></trkpt><trkpt lat="45.6624848" lon="11.5510667"><ele>112.28571428571428</ele><time>2026-04-04T08:44:32.571Z</time></trkpt><trkpt lat="45.6625499" lon="11.5510896"><ele>113.71428571428572</ele><time>2026-04-04T08:44:37.573Z</time></trkpt><trkpt lat="45.6626159" lon="11.5511218"><ele>115.14285714285715</ele><time>2026-04-04T08:44:42.569Z</time></trkpt><trkpt lat="45.6626771" lon="11.551154"><ele>116.57142857142857</ele><time>2026-04-04T08:44:47.57Z</time></trkpt><trkpt lat="45.6627506" lon="11.5511743"><ele>118.0</ele><time>2026-04-04T08:44:52.571Z</time></trkpt><trkpt lat="45.6628212" lon="11.5512007"><ele>118.57142857142857</ele><time>2026-04-04T08:44:57.572Z</time></trkpt><trkpt lat="45.6628856" lon="11.5512344"><ele>119.14285714285714</ele><time>2026-04-04T08:45:03.571Z</time></trkpt><trkpt lat="45.6629507" lon="11.5512667"><ele>119.71428571428571</ele><time>2026-04-04T08:45:08.572Z</time></trkpt><trkpt lat="45.6630053" lon="11.5513128"><ele>120.28571428571428</ele><time>2026-04-04T08:45:12.569Z</time></trkpt><trkpt lat="45.6630638" lon="11.5513503"><ele>120.85714285714286</ele><time>2026-04-04T08:45:16.57Z</time></trkpt><trkpt lat="45.6631326" lon="11.5513995"><ele>121.42857142857142</ele><time>2026-04-04T08:45:20.571Z</time></trkpt><trkpt lat="45.6631903" lon="11.551461"><ele>121.99999999999999</ele><time>2026-04-04T08:45:24.569Z</time></trkpt><trkpt lat="45.6632519" lon="11.5514978"><ele>121.99999999999999</ele><time>2026-04-04T08:45:28.569Z</time></trkpt><trkpt lat="45.6633071" lon="11.5515426"><ele>122.0</ele><time>2026-04-04T08:45:32.571Z</time></trkpt><trkpt lat="45.6633657" lon="11.5516018"><ele>121.99999999999999</ele><time>2026-04-04T08:45:36.572Z</time></trkpt><trkpt lat="45.6634349" lon="11.5516563"><ele>121.99999999999999</ele><time>2026-04-04T08:45:40.573Z</time></trkpt><trkpt lat="45.6634921" lon="11.5517034"><ele>122.0</ele><time>2026-04-04T08:45:44.57Z</time></trkpt><trkpt lat="45.6635413" lon="11.5517603"><ele>121.99999999999999</ele><time>2026-04-04T08:45:48.57Z</time></trkpt><trkpt lat="45.6635901" lon="11.5518275"><ele>121.99999999999999</ele><time>2026-04-04T08:45:52.569Z</time></trkpt><trkpt lat="45.6636511" lon="11.5518835"><ele>123.49999999999999</ele><time>2026-04-04T08:45:56.57Z</time></trkpt><trkpt lat="45.6637107" lon="11.5519348"><ele>125.0</ele><time>2026-04-04T08:46:00.57Z</time></trkpt><trkpt lat="45.6637674" lon="11.5519919"><ele>126.5</ele><time>2026-04-04T08:46:04.571Z</time></trkpt><trkpt lat="45.663822" lon="11.5520647"><ele>128.0</ele><time>2026-04-04T08:46:08.569Z</time></trkpt><trkpt lat="45.6638534" lon="11.5521574"><ele>129.5</ele><time>2026-04-04T08:46:13.561Z</time></trkpt><trkpt lat="45.6637778" lon="11.5521921"><ele>131.0</ele><time>2026-04-04T08:47:12.566Z</time></trkpt><trkpt lat="45.6636907" lon="11.5521719"><ele>131.0</ele><time>2026-04-04T08:47:15.566Z</time></trkpt><trkpt lat="45.6636251" lon="11.5521643"><ele>131.0</ele><time>2026-04-04T08:47:18.567Z</time></trkpt><trkpt lat="45.6635475" lon="11.5521591"><ele>131.0</ele><time>2026-04-04T08:47:21.569Z</time></trkpt><trkpt lat="45.6634562" lon="11.5521105"><ele>131.0</ele><time>2026-04-04T08:47:24.569Z</time></trkpt><trkpt lat="45.663397" lon="11.5520701"><ele>131.0</ele><time>2026-04-04T08:47:26.568Z</time></trkpt><trkpt lat="45.6633118" lon="11.5520356"><ele>131.0</ele><time>2026-04-04T08:47:29.568Z</time></trkpt><trkpt lat="45.663228" lon="11.5520043"><ele>129.5</ele><time>2026-04-04T08:47:32.566Z</time></trkpt><trkpt lat="45.6631344" lon="11.5519789"><ele>128.0</ele><time>2026-04-04T08:47:34.569Z</time></trkpt><trkpt lat="45.6630173" lon="11.5519539"><ele>126.5</ele><time>2026-04-04T08:47:36.57Z</time></trkpt><trkpt lat="45.6629233" lon="11.5519431"><ele>125.0</ele><time>2026-04-04T08:47:38.569Z</time></trkpt><trkpt lat="45.6628519" lon="11.5519345"><ele>123.49999999999999</ele><time>2026-04-04T08:47:40.566Z</time></trkpt><trkpt lat="45.662787" lon="11.5519146"><ele>122.0</ele><time>2026-04-04T08:47:42.566Z</time></trkpt><trkpt lat="45.6626882" lon="11.5518876"><ele>120.66666666666666</ele><time>2026-04-04T08:47:44.569Z</time></trkpt><trkpt lat="45.6625725" lon="11.5518507"><ele>119.33333333333333</ele><time>2026-04-04T08:47:46.569Z</time></trkpt><trkpt lat="45.6625083" lon="11.5518454"><ele>118.0</ele><time>2026-04-04T08:47:47.569Z</time></trkpt><trkpt lat="45.6624408" lon="11.5518311"><ele>116.66666666666666</ele><time>2026-04-04T08:47:48.568Z</time></trkpt><trkpt lat="45.6623793" lon="11.5518059"><ele>115.33333333333333</ele><time>2026-04-04T08:47:49.568Z</time></trkpt><trkpt lat="45.6623079" lon="11.5517738"><ele>114.0</ele><time>2026-04-04T08:47:51.568Z</time></trkpt><trkpt lat="45.6622451" lon="11.5517666"><ele>114.0</ele><time>2026-04-04T08:47:54.569Z</time></trkpt><trkpt lat="45.6621847" lon="11.5517209"><ele>114.0</ele><time>2026-04-04T08:47:57.566Z</time></trkpt><trkpt lat="45.6621026" lon="11.551711"><ele>114.0</ele><time>2026-04-04T08:47:59.568Z</time></trkpt><trkpt lat="45.6620506" lon="11.5516583"><ele>114.0</ele><time>2026-04-04T08:48:03.569Z</time></trkpt><trkpt lat="45.6619745" lon="11.5516302"><ele>114.0</ele><time>2026-04-04T08:48:05.568Z</time></trkpt><trkpt lat="45.6618985" lon="11.5515456"><ele>114.0</ele><time>2026-04-04T08:48:08.568Z</time></trkpt><trkpt lat="45.6618451" lon="11.5514854"><ele>113.28571428571428</ele><time>2026-04-04T08:48:12.57Z</time></trkpt><trkpt lat="45.6617973" lon="11.5514045"><ele>112.57142857142856</ele><time>2026-04-04T08:48:16.568Z</time></trkpt><trkpt lat="45.6617689" lon="11.5512995"><ele>111.85714285714286</ele><time>2026-04-04T08:48:20.568Z</time></trkpt><trkpt lat="45.6617361" lon="11.551193"><ele>111.14285714285714</ele><time>2026-04-04T08:48:24.567Z</time></trkpt><trkpt lat="45.6617089" lon="11.551101"><ele>110.42857142857143</ele><time>2026-04-04T08:48:28.569Z</time></trkpt><trkpt lat="45.6616838" lon="11.55101"><ele>109.71428571428572</ele><time>2026-04-04T08:48:34.572Z</time></trkpt><trkpt lat="45.6617225" lon="11.5509311"><ele>109.0</ele><time>2026-04-04T08:48:41.566Z</time></trkpt><trkpt lat="45.6617137" lon="11.5510481"><ele>109.0</ele><time>2026-04-04T08:48:47.571Z</time></trkpt><trkpt lat="45.6617601" lon="11.5511859"><ele>109.0</ele><time>2026-04-04T08:48:49.569Z</time></trkpt><trkpt lat="45.6617915" lon="11.5512708"><ele>109.0</ele><time>2026-04-04T08:48:50.569Z</time></trkpt><trkpt lat="45.6618599" lon="11.5514005"><ele>109.0</ele><time>2026-04-04T08:48:52.571Z</time></trkpt><trkpt lat="45.6619419" lon="11.5514721"><ele>109.0</ele><time>2026-04-04T08:48:54.571Z</time></trkpt><trkpt lat="45.6618575" lon="11.5515237"><ele>109.0</ele><time>2026-04-04T08:48:59.569Z</time></trkpt><trkpt lat="45.6617379" lon="11.5514811"><ele>109.0</ele><time>2026-04-04T08:49:01.57Z</time></trkpt><trkpt lat="45.6616748" lon="11.5514482"><ele>109.0</ele><time>2026-04-04T08:49:02.571Z</time></trkpt><trkpt lat="45.6616172" lon="11.5514036"><ele>109.0</ele><time>2026-04-04T08:49:03.572Z</time></trkpt><trkpt lat="45.6615099" lon="11.55131"><ele>109.0</ele><time>2026-04-04T08:49:05.57Z</time></trkpt><trkpt lat="45.6614223" lon="11.5512083"><ele>108.83333333333334</ele><time>2026-04-04T08:49:07.57Z</time></trkpt><trkpt lat="45.6613559" lon="11.5510718"><ele>108.66666666666667</ele><time>2026-04-04T08:49:09.572Z</time></trkpt><trkpt lat="45.6613259" lon="11.5509915"><ele>108.5</ele><time>2026-04-04T08:49:10.57Z</time></trkpt><trkpt lat="45.6613003" lon="11.5509025"><ele>108.33333333333334</ele><time>2026-04-04T08:49:11.569Z</time></trkpt><trkpt lat="45.6612787" lon="11.5508105"><ele>108.16666666666667</ele><time>2026-04-04T08:49:12.569Z</time></trkpt><trkpt lat="45.6612578" lon="11.5507219"><ele>108.0</ele><time>2026-04-04T08:49:13.57Z</time></trkpt><trkpt lat="45.6612106" lon="11.5505619"><ele>108.0</ele><time>2026-04-04T08:49:15.567Z</time></trkpt><trkpt lat="45.6611535" lon="11.5504079"><ele>108.00000000000001</ele><time>2026-04-04T08:49:17.568Z</time></trkpt><trkpt lat="45.6611238" lon="11.5503246"><ele>108.00000000000001</ele><time>2026-04-04T08:49:18.561Z</time></trkpt><trkpt lat="45.6610879" lon="11.5501627"><ele>108.0</ele><time>2026-04-04T08:49:20.568Z</time></trkpt><trkpt lat="45.6610779" lon="11.5499861"><ele>108.0</ele><time>2026-04-04T08:49:22.568Z</time></trkpt><trkpt lat="45.6610538" lon="11.5498203"><ele>106.80000000000001</ele><time>2026-04-04T08:49:24.569Z</time></trkpt><trkpt lat="45.6610298" lon="11.5496617"><ele>105.60000000000001</ele><time>2026-04-04T08:49:26.569Z</time></trkpt><trkpt lat="45.661023" lon="11.5495167"><ele>104.4</ele><time>2026-04-04T08:49:28.569Z</time></trkpt><trkpt lat="45.6610153" lon="11.5493915"><ele>103.19999999999999</ele><time>2026-04-04T08:49:30.57Z</time></trkpt><trkpt lat="45.6610087" lon="11.5492612"><ele>102.0</ele><time>2026-04-04T08:49:32.571Z</time></trkpt><trkpt lat="45.6609952" lon="11.5491456"><ele>101.14285714285714</ele><time>2026-04-04T08:49:34.568Z</time></trkpt><trkpt lat="45.6609413" lon="11.5490841"><ele>100.28571428571429</ele><time>2026-04-04T08:49:37.572Z</time></trkpt><trkpt lat="45.6608925" lon="11.5491464"><ele>99.42857142857142</ele><time>2026-04-04T08:49:40.571Z</time></trkpt><trkpt lat="45.6608573" lon="11.5492274"><ele>98.57142857142857</ele><time>2026-04-04T08:49:47.571Z</time></trkpt><trkpt lat="45.6608228" lon="11.5493036"><ele>97.71428571428571</ele><time>2026-04-04T08:49:54.568Z</time></trkpt><trkpt lat="45.6607912" lon="11.5493823"><ele>96.85714285714285</ele><time>2026-04-04T08:50:25.57Z</time></trkpt><trkpt lat="45.6607325" lon="11.5494151"><ele>96.0</ele><time>2026-04-04T08:50:58.571Z</time></trkpt><trkpt lat="45.6606517" lon="11.5494221"><ele>95.99999999999999</ele><time>2026-04-04T08:51:02.605Z</time></trkpt><trkpt lat="45.6605754" lon="11.5494278"><ele>96.0</ele><time>2026-04-04T08:51:06.605Z</time></trkpt><trkpt lat="45.6605112" lon="11.5494431"><ele>96.0</ele><time>2026-04-04T08:51:09.573Z</time></trkpt><trkpt lat="45.6604465" lon="11.5494502"><ele>96.0</ele><time>2026-04-04T08:51:15.571Z</time></trkpt><trkpt lat="45.6603832" lon="11.5494432"><ele>96.0</ele><time>2026-04-04T08:51:20.571Z</time></trkpt><trkpt lat="45.660317" lon="11.5494535"><ele>95.99999999999999</ele><time>2026-04-04T08:51:39.567Z</time></trkpt><trkpt lat="45.660304" lon="11.5495458"><ele>96.0</ele><time>2026-04-04T08:51:46.568Z</time></trkpt><trkpt lat="45.6602693" lon="11.5496274"><ele>97.6</ele><time>2026-04-04T08:51:50.574Z</time></trkpt><trkpt lat="45.6602211" lon="11.5496945"><ele>99.19999999999999</ele><time>2026-04-04T08:51:58.574Z</time></trkpt><trkpt lat="45.6601947" lon="11.5497797"><ele>100.80000000000001</ele><time>2026-04-04T08:52:04.572Z</time></trkpt><trkpt lat="45.6601828" lon="11.5498692"><ele>102.4</ele><time>2026-04-04T08:52:09.574Z</time></trkpt><trkpt lat="45.6601437" lon="11.5499562"><ele>104.0</ele><time>2026-04-04T08:52:15.575Z</time></trkpt><trkpt lat="45.6602323" lon="11.550206"><ele>103.66666666666666</ele><time>2026-04-04T08:54:12.575Z</time></trkpt><trkpt lat="45.6602875" lon="11.5503099"><ele>103.33333333333333</ele><time>2026-04-04T08:54:14.574Z</time></trkpt><trkpt lat="45.6603404" lon="11.5503653"><ele>103.0</ele><time>2026-04-04T08:54:17.573Z</time></trkpt><trkpt lat="45.660393" lon="11.5504601"><ele>102.66666666666666</ele><time>2026-04-04T08:54:20.575Z</time></trkpt><trkpt lat="45.6604069" lon="11.5505854"><ele>102.33333333333333</ele><time>2026-04-04T08:54:23.575Z</time></trkpt><trkpt lat="45.660438" lon="11.5506918"><ele>102.0</ele><time>2026-04-04T08:55:01.604Z</time></trkpt><trkpt lat="45.6604797" lon="11.5507629"><ele>102.5</ele><time>2026-04-04T08:55:03.574Z</time></trkpt><trkpt lat="45.6605259" lon="11.5508408"><ele>103.0</ele><time>2026-04-04T08:55:05.596Z</time></trkpt><trkpt lat="45.6605501" lon="11.5509574"><ele>103.5</ele><time>2026-04-04T08:55:07.568Z</time></trkpt><trkpt lat="45.6605721" lon="11.5510609"><ele>104.0</ele><time>2026-04-04T08:55:09.604Z</time></trkpt><trkpt lat="45.6606126" lon="11.5511689"><ele>104.5</ele><time>2026-04-04T08:55:11.604Z</time></trkpt><trkpt lat="45.6606734" lon="11.5512571"><ele>105.0</ele><time>2026-04-04T08:55:14.577Z</time></trkpt><trkpt lat="45.6606814" lon="11.5513785"><ele>105.0</ele><time>2026-04-04T08:55:17.605Z</time></trkpt><trkpt lat="45.660718" lon="11.5515257"><ele>105.0</ele><time>2026-04-04T08:55:38.604Z</time></trkpt><trkpt lat="45.6607629" lon="11.5516815"><ele>105.0</ele><time>2026-04-04T08:55:41.571Z</time></trkpt><trkpt lat="45.6607761" lon="11.5517883"><ele>105.0</ele><time>2026-04-04T08:55:44.571Z</time></trkpt><trkpt lat="45.6607538" lon="11.5517003"><ele>105.0</ele><time>2026-04-04T08:56:18.573Z</time></trkpt><trkpt lat="45.6607237" lon="11.5516026"><ele>105.0</ele><time>2026-04-04T08:56:22.571Z</time></trkpt><trkpt lat="45.6606928" lon="11.5515099"><ele>105.0</ele><time>2026-04-04T08:56:27.572Z</time></trkpt><trkpt lat="45.660662" lon="11.5514121"><ele>105.0</ele><time>2026-04-04T08:56:31.57Z</time></trkpt><trkpt lat="45.6606429" lon="11.5513155"><ele>105.0</ele><time>2026-04-04T08:56:35.574Z</time></trkpt><trkpt lat="45.6606105" lon="11.5512243"><ele>105.0</ele><time>2026-04-04T08:56:40.575Z</time></trkpt><trkpt lat="45.6605788" lon="11.5511396"><ele>105.0</ele><time>2026-04-04T08:56:44.574Z</time></trkpt><trkpt lat="45.6605398" lon="11.5510656"><ele>105.0</ele><time>2026-04-04T08:56:49.574Z</time></trkpt><trkpt lat="45.6605035" lon="11.5509815"><ele>105.0</ele><time>2026-04-04T08:56:54.573Z</time></trkpt><trkpt lat="45.6604809" lon="11.5508946"><ele>104.85714285714286</ele><time>2026-04-04T08:56:59.563Z</time></trkpt><trkpt lat="45.6604552" lon="11.550803"><ele>104.71428571428572</ele><time>2026-04-04T08:57:04.575Z</time></trkpt><trkpt lat="45.6604295" lon="11.5507171"><ele>104.57142857142857</ele><time>2026-04-04T08:57:08.573Z</time></trkpt><trkpt lat="45.6603989" lon="11.5506369"><ele>104.42857142857143</ele><time>2026-04-04T08:57:12.573Z</time></trkpt><trkpt lat="45.6603687" lon="11.5505414"><ele>104.28571428571429</ele><time>2026-04-04T08:57:18.574Z</time></trkpt><trkpt lat="45.6603567" lon="11.550451"><ele>104.14285714285714</ele><time>2026-04-04T08:57:24.573Z</time></trkpt><trkpt lat="45.6603115" lon="11.5503773"><ele>104.0</ele><time>2026-04-04T08:57:37.573Z</time></trkpt><trkpt lat="45.6602496" lon="11.5503306"><ele>104.0</ele><time>2026-04-04T08:57:41.573Z</time></trkpt><trkpt lat="45.6601766" lon="11.5502949"><ele>104.0</ele><time>2026-04-04T08:57:46.573Z</time></trkpt><trkpt lat="45.6601238" lon="11.5502291"><ele>104.0</ele><time>2026-04-04T08:57:49.573Z</time></trkpt><trkpt lat="45.6600852" lon="11.5501382"><ele>104.0</ele><time>2026-04-04T08:57:52.572Z</time></trkpt><trkpt lat="45.6601017" lon="11.5500493"><ele>104.0</ele><time>2026-04-04T08:57:55.572Z</time></trkpt><trkpt lat="45.6601471" lon="11.5499607"><ele>104.0</ele><time>2026-04-04T08:57:58.573Z</time></trkpt><trkpt lat="45.6602026" lon="11.5498893"><ele>104.0</ele><time>2026-04-04T08:58:03.576Z</time></trkpt><trkpt lat="45.660294" lon="11.5498205"><ele>103.66666666666666</ele><time>2026-04-04T08:58:07.573Z</time></trkpt><trkpt lat="45.6603631" lon="11.5498199"><ele>103.33333333333333</ele><time>2026-04-04T08:58:10.575Z</time></trkpt><trkpt lat="45.6604533" lon="11.549833"><ele>103.0</ele><time>2026-04-04T08:58:13.573Z</time></trkpt><trkpt lat="45.6605199" lon="11.5498611"><ele>102.66666666666666</ele><time>2026-04-04T08:58:15.574Z</time></trkpt><trkpt lat="45.6605792" lon="11.5499049"><ele>102.33333333333333</ele><time>2026-04-04T08:58:17.573Z</time></trkpt><trkpt lat="45.660649" lon="11.5499715"><ele>102.0</ele><time>2026-04-04T08:58:20.575Z</time></trkpt><trkpt lat="45.6606849" lon="11.5500601"><ele>102.0</ele><time>2026-04-04T08:58:26.572Z</time></trkpt><trkpt lat="45.6607132" lon="11.5501498"><ele>102.0</ele><time>2026-04-04T08:58:30.571Z</time></trkpt><trkpt lat="45.6607348" lon="11.5502556"><ele>102.0</ele><time>2026-04-04T08:58:35.57Z</time></trkpt><trkpt lat="45.6607815" lon="11.5503342"><ele>102.0</ele><time>2026-04-04T08:58:39.571Z</time></trkpt><trkpt lat="45.6608242" lon="11.5504358"><ele>102.0</ele><time>2026-04-04T08:58:43.57Z</time></trkpt><trkpt lat="45.6608526" lon="11.5505963"><ele>102.0</ele><time>2026-04-04T08:58:46.572Z</time></trkpt><trkpt lat="45.6608744" lon="11.5507126"><ele>102.42857142857143</ele><time>2026-04-04T08:58:50.573Z</time></trkpt><trkpt lat="45.6608793" lon="11.5508201"><ele>102.85714285714286</ele><time>2026-04-04T08:58:55.573Z</time></trkpt><trkpt lat="45.6608852" lon="11.550919"><ele>103.28571428571428</ele><time>2026-04-04T08:58:59.573Z</time></trkpt><trkpt lat="45.6608544" lon="11.5510096"><ele>103.71428571428572</ele><time>2026-04-04T08:59:03.575Z</time></trkpt><trkpt lat="45.6608124" lon="11.551079"><ele>104.14285714285714</ele><time>2026-04-04T08:59:06.573Z</time></trkpt><trkpt lat="45.660754" lon="11.5511374"><ele>104.57142857142857</ele><time>2026-04-04T08:59:11.573Z</time></trkpt><trkpt lat="45.6606817" lon="11.5512031"><ele>105.0</ele><time>2026-04-04T08:59:16.575Z</time></trkpt><trkpt lat="45.6606702" lon="11.551312"><ele>105.0</ele><time>2026-04-04T08:59:19.575Z</time></trkpt><trkpt lat="45.6606699" lon="11.5514209"><ele>105.0</ele><time>2026-04-04T08:59:22.574Z</time></trkpt><trkpt lat="45.6605921" lon="11.5514251"><ele>105.0</ele><time>2026-04-04T08:59:24.573Z</time></trkpt><trkpt lat="45.6605" lon="11.5513677"><ele>105.0</ele><time>2026-04-04T08:59:26.574Z</time></trkpt><trkpt lat="45.6604165" lon="11.5513025"><ele>105.0</ele><time>2026-04-04T08:59:28.573Z</time></trkpt><trkpt lat="45.660355" lon="11.5512379"><ele>105.0</ele><time>2026-04-04T08:59:30.572Z</time></trkpt><trkpt lat="45.6602824" lon="11.5511663"><ele>104.28571428571429</ele><time>2026-04-04T08:59:33.573Z</time></trkpt><trkpt lat="45.66023" lon="11.5511144"><ele>103.57142857142857</ele><time>2026-04-04T08:59:35.571Z</time></trkpt><trkpt lat="45.6601761" lon="11.5510518"><ele>102.85714285714286</ele><time>2026-04-04T08:59:37.569Z</time></trkpt><trkpt lat="45.6601263" lon="11.5509718"><ele>102.14285714285714</ele><time>2026-04-04T08:59:40.569Z</time></trkpt><trkpt lat="45.6600896" lon="11.5508676"><ele>101.42857142857143</ele><time>2026-04-04T08:59:46.572Z</time></trkpt><trkpt lat="45.6600562" lon="11.5507714"><ele>100.71428571428572</ele><time>2026-04-04T08:59:51.568Z</time></trkpt><trkpt lat="45.6600487" lon="11.5506717"><ele>100.0</ele><time>2026-04-04T08:59:58.567Z</time></trkpt><trkpt lat="45.6600429" lon="11.5505695"><ele>100.00000000000001</ele><time>2026-04-04T09:00:02.565Z</time></trkpt><trkpt lat="45.660017" lon="11.5504608"><ele>100.0</ele><time>2026-04-04T09:00:06.564Z</time></trkpt><trkpt lat="45.6599889" lon="11.5503629"><ele>100.0</ele><time>2026-04-04T09:00:11.568Z</time></trkpt><trkpt lat="45.6599875" lon="11.5502317"><ele>100.0</ele><time>2026-04-04T09:00:15.57Z</time></trkpt><trkpt lat="45.6599714" lon="11.55011"><ele>100.00000000000001</ele><time>2026-04-04T09:00:18.571Z</time></trkpt><trkpt lat="45.6599815" lon="11.550014"><ele>100.0</ele><time>2026-04-04T09:00:20.571Z</time></trkpt><trkpt lat="45.6600155" lon="11.5498795"><ele>99.6</ele><time>2026-04-04T09:00:22.571Z</time></trkpt><trkpt lat="45.6600615" lon="11.5497044"><ele>99.2</ele><time>2026-04-04T09:00:24.572Z</time></trkpt><trkpt lat="45.6600962" lon="11.5496029"><ele>98.80000000000001</ele><time>2026-04-04T09:00:25.57Z</time></trkpt><trkpt lat="45.6601292" lon="11.549502"><ele>98.4</ele><time>2026-04-04T09:00:26.569Z</time></trkpt><trkpt lat="45.6601622" lon="11.5493938"><ele>98.0</ele><time>2026-04-04T09:00:27.572Z</time></trkpt><trkpt lat="45.6601963" lon="11.5492756"><ele>97.99999999999999</ele><time>2026-04-04T09:00:28.571Z</time></trkpt><trkpt lat="45.6602371" lon="11.549158"><ele>98.0</ele><time>2026-04-04T09:00:29.572Z</time></trkpt><trkpt lat="45.6602863" lon="11.5490422"><ele>98.0</ele><time>2026-04-04T09:00:30.571Z</time></trkpt><trkpt lat="45.6603376" lon="11.5489444"><ele>98.0</ele><time>2026-04-04T09:00:31.567Z</time></trkpt><trkpt lat="45.6603885" lon="11.5488512"><ele>97.99999999999999</ele><time>2026-04-04T09:00:32.569Z</time></trkpt><trkpt lat="45.6604425" lon="11.5487634"><ele>98.0</ele><time>2026-04-04T09:00:33.567Z</time></trkpt><trkpt lat="45.6604978" lon="11.5486798"><ele>96.99999999999999</ele><time>2026-04-04T09:00:34.568Z</time></trkpt><trkpt lat="45.6605437" lon="11.5486006"><ele>96.0</ele><time>2026-04-04T09:00:35.567Z</time></trkpt><trkpt lat="45.6606196" lon="11.5485134"><ele>95.0</ele><time>2026-04-04T09:00:37.565Z</time></trkpt><trkpt lat="45.6606689" lon="11.5484453"><ele>94.0</ele><time>2026-04-04T09:00:39.568Z</time></trkpt><trkpt lat="45.660717" lon="11.5483467"><ele>93.0</ele><time>2026-04-04T09:00:42.571Z</time></trkpt><trkpt lat="45.6607568" lon="11.5482529"><ele>92.0</ele><time>2026-04-04T09:00:44.572Z</time></trkpt><trkpt lat="45.6608128" lon="11.5482049"><ele>92.0</ele><time>2026-04-04T09:00:46.573Z</time></trkpt><trkpt lat="45.6608661" lon="11.5481549"><ele>92.0</ele><time>2026-04-04T09:00:48.571Z</time></trkpt><trkpt lat="45.6609387" lon="11.548082"><ele>92.0</ele><time>2026-04-04T09:00:51.572Z</time></trkpt><trkpt lat="45.6609974" lon="11.5480258"><ele>92.0</ele><time>2026-04-04T09:00:54.571Z</time></trkpt><trkpt lat="45.6610558" lon="11.5479859"><ele>92.0</ele><time>2026-04-04T09:00:57.575Z</time></trkpt><trkpt lat="45.6611192" lon="11.5479416"><ele>92.0</ele><time>2026-04-04T09:01:00.573Z</time></trkpt><trkpt lat="45.6611862" lon="11.5478971"><ele>92.0</ele><time>2026-04-04T09:01:03.572Z</time></trkpt><trkpt lat="45.6612591" lon="11.5478831"><ele>92.42857142857143</ele><time>2026-04-04T09:01:06.57Z</time></trkpt><trkpt lat="45.6613154" lon="11.547944"><ele>92.85714285714285</ele><time>2026-04-04T09:01:10.569Z</time></trkpt><trkpt lat="45.661305" lon="11.5480493"><ele>93.28571428571428</ele><time>2026-04-04T09:01:14.572Z</time></trkpt><trkpt lat="45.661316" lon="11.5481522"><ele>93.71428571428572</ele><time>2026-04-04T09:01:19.574Z</time></trkpt><trkpt lat="45.6613258" lon="11.548254"><ele>94.14285714285714</ele><time>2026-04-04T09:01:26.573Z</time></trkpt><trkpt lat="45.6613466" lon="11.548355"><ele>94.57142857142857</ele><time>2026-04-04T09:01:31.57Z</time></trkpt><trkpt lat="45.661355" lon="11.5484502"><ele>95.0</ele><time>2026-04-04T09:01:35.572Z</time></trkpt><trkpt lat="45.6613651" lon="11.54855"><ele>95.0</ele><time>2026-04-04T09:01:40.574Z</time></trkpt><trkpt lat="45.6613624" lon="11.5486498"><ele>95.0</ele><time>2026-04-04T09:01:44.575Z</time></trkpt><trkpt lat="45.6613763" lon="11.5487527"><ele>95.0</ele><time>2026-04-04T09:01:49.573Z</time></trkpt><trkpt lat="45.6613832" lon="11.5488555"><ele>95.0</ele><time>2026-04-04T09:01:54.574Z</time></trkpt><trkpt lat="45.6613892" lon="11.5489537"><ele>95.0</ele><time>2026-04-04T09:01:59.57Z</time></trkpt><trkpt lat="45.6614006" lon="11.5490512"><ele>95.0</ele><time>2026-04-04T09:02:04.572Z</time></trkpt><trkpt lat="45.6614224" lon="11.5491461"><ele>95.0</ele><time>2026-04-04T09:02:09.57Z</time></trkpt><trkpt lat="45.6614264" lon="11.5492384"><ele>96.0</ele><time>2026-04-04T09:02:13.575Z</time></trkpt><trkpt lat="45.6614104" lon="11.5493337"><ele>97.0</ele><time>2026-04-04T09:02:18.572Z</time></trkpt><trkpt lat="45.6614182" lon="11.5494303"><ele>98.0</ele><time>2026-04-04T09:02:23.571Z</time></trkpt><trkpt lat="45.6614115" lon="11.5495246"><ele>99.0</ele><time>2026-04-04T09:02:28.575Z</time></trkpt><trkpt lat="45.6614201" lon="11.549637"><ele>100.0</ele><time>2026-04-04T09:02:32.574Z</time></trkpt><trkpt lat="45.6614167" lon="11.5497415"><ele>101.0</ele><time>2026-04-04T09:02:36.573Z</time></trkpt><trkpt lat="45.6614316" lon="11.5498475"><ele>102.0</ele><time>2026-04-04T09:02:40.572Z</time></trkpt><trkpt lat="45.6614469" lon="11.54996"><ele>102.57142857142857</ele><time>2026-04-04T09:02:44.574Z</time></trkpt><trkpt lat="45.6614504" lon="11.5500544"><ele>103.14285714285714</ele><time>2026-04-04T09:02:47.57Z</time></trkpt><trkpt lat="45.6614545" lon="11.5501668"><ele>103.71428571428572</ele><time>2026-04-04T09:02:51.57Z</time></trkpt><trkpt lat="45.6614619" lon="11.5502894"><ele>104.28571428571428</ele><time>2026-04-04T09:02:55.562Z</time></trkpt><trkpt lat="45.6614665" lon="11.5503865"><ele>104.85714285714285</ele><time>2026-04-04T09:02:58.568Z</time></trkpt><trkpt lat="45.6614792" lon="11.5504908"><ele>105.42857142857143</ele><time>2026-04-04T09:03:01.57Z</time></trkpt><trkpt lat="45.661488" lon="11.5505927"><ele>106.0</ele><time>2026-04-04T09:03:04.57Z</time></trkpt><trkpt lat="45.6615022" lon="11.5506965"><ele>106.28571428571429</ele><time>2026-04-04T09:03:08.571Z</time></trkpt><trkpt lat="45.6615217" lon="11.5507856"><ele>106.57142857142857</ele><time>2026-04-04T09:03:13.569Z</time></trkpt><trkpt lat="45.6615584" lon="11.5508604"><ele>106.85714285714286</ele><time>2026-04-04T09:03:16.571Z</time></trkpt><trkpt lat="45.6616218" lon="11.5508507"><ele>107.14285714285714</ele><time>2026-04-04T09:03:20.572Z</time></trkpt><trkpt lat="45.6616524" lon="11.5507594"><ele>107.42857142857142</ele><time>2026-04-04T09:03:26.571Z</time></trkpt><trkpt lat="45.6617207" lon="11.5507272"><ele>107.71428571428571</ele><time>2026-04-04T09:03:32.574Z</time></trkpt><trkpt lat="45.6617846" lon="11.5507496"><ele>108.0</ele><time>2026-04-04T09:03:36.572Z</time></trkpt><trkpt lat="45.6618483" lon="11.5507645"><ele>108.0</ele><time>2026-04-04T09:03:41.569Z</time></trkpt><trkpt lat="45.6619164" lon="11.550801"><ele>108.0</ele><time>2026-04-04T09:03:46.571Z</time></trkpt><trkpt lat="45.661988" lon="11.5508414"><ele>108.0</ele><time>2026-04-04T09:03:51.571Z</time></trkpt><trkpt lat="45.6620514" lon="11.5508946"><ele>108.0</ele><time>2026-04-04T09:03:56.571Z</time></trkpt><trkpt lat="45.6621103" lon="11.5509267"><ele>108.0</ele><time>2026-04-04T09:04:01.57Z</time></trkpt><trkpt lat="45.6621715" lon="11.5509508"><ele>108.0</ele><time>2026-04-04T09:04:05.57Z</time></trkpt><trkpt lat="45.6622418" lon="11.550977"><ele>108.0</ele><time>2026-04-04T09:04:10.572Z</time></trkpt><trkpt lat="45.6623159" lon="11.5510041"><ele>109.42857142857143</ele><time>2026-04-04T09:04:16.57Z</time></trkpt><trkpt lat="45.6623928" lon="11.551029"><ele>110.85714285714286</ele><time>2026-04-04T09:04:21.572Z</time></trkpt><trkpt lat="45.6624641" lon="11.5510601"><ele>112.28571428571428</ele><time>2026-04-04T09:04:26.571Z</time></trkpt><trkpt lat="45.6625237" lon="11.5510983"><ele>113.71428571428572</ele><time>2026-04-04T09:04:31.571Z</time></trkpt><trkpt lat="45.6625896" lon="11.5511273"><ele>115.14285714285715</ele><time>2026-04-04T09:04:37.572Z</time></trkpt><trkpt lat="45.6626542" lon="11.5511501"><ele>116.57142857142857</ele><time>2026-04-04T09:04:41.57Z</time></trkpt><trkpt lat="45.6627276" lon="11.5511415"><ele>118.0</ele><time>2026-04-04T09:04:46.571Z</time></trkpt><trkpt lat="45.6627987" lon="11.5511682"><ele>118.66666666666667</ele><time>2026-04-04T09:04:52.572Z</time></trkpt><trkpt lat="45.6628765" lon="11.5512146"><ele>119.33333333333334</ele><time>2026-04-04T09:04:57.571Z</time></trkpt><trkpt lat="45.6629347" lon="11.5512625"><ele>120.0</ele><time>2026-04-04T09:05:00.57Z</time></trkpt><trkpt lat="45.6630117" lon="11.5513048"><ele>120.66666666666666</ele><time>2026-04-04T09:05:04.573Z</time></trkpt><trkpt lat="45.6630833" lon="11.5513547"><ele>121.33333333333333</ele><time>2026-04-04T09:05:08.57Z</time></trkpt><trkpt lat="45.6631902" lon="11.551441"><ele>122.0</ele><time>2026-04-04T09:05:12.571Z</time></trkpt><trkpt lat="45.6632474" lon="11.5514847"><ele>121.99999999999999</ele><time>2026-04-04T09:05:15.568Z</time></trkpt><trkpt lat="45.6633068" lon="11.5515437"><ele>122.0</ele><time>2026-04-04T09:05:20.57Z</time></trkpt><trkpt lat="45.6633652" lon="11.5516012"><ele>121.99999999999999</ele><time>2026-04-04T09:05:24.571Z</time></trkpt><trkpt lat="45.66343" lon="11.5516628"><ele>121.99999999999999</ele><time>2026-04-04T09:05:28.571Z</time></trkpt><trkpt lat="45.6634805" lon="11.5517226"><ele>122.0</ele><time>2026-04-04T09:05:32.571Z</time></trkpt><trkpt lat="45.6635386" lon="11.5517951"><ele>121.99999999999999</ele><time>2026-04-04T09:05:36.569Z</time></trkpt><trkpt lat="45.6635994" lon="11.5518512"><ele>121.99999999999999</ele><time>2026-04-04T09:05:40.569Z</time></trkpt><trkpt lat="45.6636658" lon="11.5519071"><ele>123.28571428571428</ele><time>2026-04-04T09:05:44.567Z</time></trkpt><trkpt lat="45.6637323" lon="11.5519554"><ele>124.57142857142857</ele><time>2026-04-04T09:05:49.567Z</time></trkpt><trkpt lat="45.6637912" lon="11.5519982"><ele>125.85714285714286</ele><time>2026-04-04T09:05:53.574Z</time></trkpt><trkpt lat="45.6638361" lon="11.5520921"><ele>127.14285714285714</ele><time>2026-04-04T09:05:57.57Z</time></trkpt><trkpt lat="45.6638835" lon="11.5521888"><ele>128.42857142857144</ele><time>2026-04-04T09:06:00.566Z</time></trkpt><trkpt lat="45.6639498" lon="11.5522064"><ele>129.71428571428572</ele><time>2026-04-04T09:06:04.562Z</time></trkpt><trkpt lat="45.6640102" lon="11.5521804"><ele>131.0</ele><time>2026-04-04T09:06:11.566Z</time></trkpt><trkpt lat="45.6639867" lon="11.5520799"><ele>131.0</ele><time>2026-04-04T09:06:17.568Z</time></trkpt><trkpt lat="45.6640102" lon="11.5519956"><ele>131.0</ele><time>2026-04-04T09:06:22.569Z</time></trkpt><trkpt lat="45.6640281" lon="11.5519057"><ele>131.0</ele><time>2026-04-04T09:06:27.569Z</time></trkpt><trkpt lat="45.6640706" lon="11.5518142"><ele>131.0</ele><time>2026-04-04T09:06:31.569Z</time></trkpt><trkpt lat="45.6641203" lon="11.5518878"><ele>131.0</ele><time>2026-04-04T09:06:36.565Z</time></trkpt><trkpt lat="45.6641641" lon="11.5519646"><ele>131.0</ele><time>2026-04-04T09:07:13.572Z</time></trkpt><trkpt lat="45.6642047" lon="11.5520634"><ele>131.0</ele><time>2026-04-04T09:07:17.571Z</time></trkpt><trkpt lat="45.6642275" lon="11.5521604"><ele>131.0</ele><time>2026-04-04T09:07:20.571Z</time></trkpt><trkpt lat="45.6642752" lon="11.5522513"><ele>131.0</ele><time>2026-04-04T09:07:24.573Z</time></trkpt><trkpt lat="45.6643052" lon="11.5523306"><ele>131.0</ele><time>2026-04-04T09:07:27.573Z</time></trkpt><trkpt lat="45.6643474" lon="11.5524218"><ele>131.0</ele><time>2026-04-04T09:07:31.569Z</time></trkpt><trkpt lat="45.6643872" lon="11.5525119"><ele>131.0</ele><time>2026-04-04T09:07:34.572Z</time></trkpt><trkpt lat="45.66442" lon="11.5526078"><ele>131.0</ele><time>2026-04-04T09:07:37.573Z</time></trkpt><trkpt lat="45.6644391" lon="11.5527074"><ele>131.0</ele><time>2026-04-04T09:07:40.57Z</time></trkpt><trkpt lat="45.6644541" lon="11.5528043"><ele>133.0</ele><time>2026-04-04T09:07:43.574Z</time></trkpt><trkpt lat="45.6644478" lon="11.5529122"><ele>135.0</ele><time>2026-04-04T09:07:46.568Z</time></trkpt><trkpt lat="45.6644459" lon="11.5530081"><ele>137.0</ele><time>2026-04-04T09:07:49.567Z</time></trkpt><trkpt lat="45.6645012" lon="11.5530708"><ele>139.0</ele><time>2026-04-04T09:07:53.569Z</time></trkpt><trkpt lat="45.6645658" lon="11.5530749"><ele>141.0</ele><time>2026-04-04T09:07:57.565Z</time></trkpt><trkpt lat="45.6646397" lon="11.5530762"><ele>143.0</ele><time>2026-04-04T09:08:01.568Z</time></trkpt><trkpt lat="45.6647054" lon="11.5530865"><ele>145.0</ele><time>2026-04-04T09:08:04.568Z</time></trkpt><trkpt lat="45.6647878" lon="11.5530957"><ele>145.0</ele><time>2026-04-04T09:08:08.567Z</time></trkpt><trkpt lat="45.6648603" lon="11.5530958"><ele>145.0</ele><time>2026-04-04T09:08:12.565Z</time></trkpt><trkpt lat="45.6649425" lon="11.5531134"><ele>145.0</ele><time>2026-04-04T09:08:16.568Z</time></trkpt><trkpt lat="45.6650037" lon="11.5531508"><ele>145.0</ele><time>2026-04-04T09:08:19.569Z</time></trkpt><trkpt lat="45.6650754" lon="11.5532234"><ele>145.0</ele><time>2026-04-04T09:08:22.569Z</time></trkpt><trkpt lat="45.6651425" lon="11.5532986"><ele>145.0</ele><time>2026-04-04T09:08:25.569Z</time></trkpt><trkpt lat="45.6652087" lon="11.5533532"><ele>145.16666666666669</ele><time>2026-04-04T09:08:28.568Z</time></trkpt><trkpt lat="45.6652799" lon="11.5534127"><ele>145.33333333333334</ele><time>2026-04-04T09:08:32.569Z</time></trkpt><trkpt lat="45.6653477" lon="11.5534448"><ele>145.5</ele><time>2026-04-04T09:08:36.572Z</time></trkpt><trkpt lat="45.665426" lon="11.5534274"><ele>145.66666666666666</ele><time>2026-04-04T09:08:40.569Z</time></trkpt><trkpt lat="45.6654973" lon="11.5533957"><ele>145.83333333333331</ele><time>2026-04-04T09:08:44.57Z</time></trkpt><trkpt lat="45.6655549" lon="11.5533584"><ele>146.0</ele><time>2026-04-04T09:08:47.57Z</time></trkpt><trkpt lat="45.6656308" lon="11.5533131"><ele>146.0</ele><time>2026-04-04T09:08:51.57Z</time></trkpt><trkpt lat="45.6656986" lon="11.553275"><ele>146.0</ele><time>2026-04-04T09:08:55.571Z</time></trkpt><trkpt lat="45.6657711" lon="11.5533007"><ele>146.0</ele><time>2026-04-04T09:08:58.569Z</time></trkpt><trkpt lat="45.665837" lon="11.5532587"><ele>146.0</ele><time>2026-04-04T09:09:01.57Z</time></trkpt><trkpt lat="45.6658857" lon="11.5531992"><ele>146.0</ele><time>2026-04-04T09:09:03.573Z</time></trkpt><trkpt lat="45.6659447" lon="11.5531276"><ele>146.0</ele><time>2026-04-04T09:09:05.57Z</time></trkpt><trkpt lat="45.6660039" lon="11.5530588"><ele>146.0</ele><time>2026-04-04T09:09:07.568Z</time></trkpt><trkpt lat="45.6660595" lon="11.5529668"><ele>144.2</ele><time>2026-04-04T09:09:09.57Z</time></trkpt><trkpt lat="45.6661232" lon="11.5528363"><ele>142.39999999999998</ele><time>2026-04-04T09:09:11.569Z</time></trkpt><trkpt lat="45.6661834" lon="11.5526892"><ele>140.6</ele><time>2026-04-04T09:09:13.57Z</time></trkpt><trkpt lat="45.6662504" lon="11.5525474"><ele>138.79999999999998</ele><time>2026-04-04T09:09:15.568Z</time></trkpt><trkpt lat="45.6662973" lon="11.5524838"><ele>137.0</ele><time>2026-04-04T09:09:16.57Z</time></trkpt><trkpt lat="45.6663497" lon="11.5524317"><ele>137.0</ele><time>2026-04-04T09:09:17.568Z</time></trkpt><trkpt lat="45.6664647" lon="11.5523788"><ele>137.0</ele><time>2026-04-04T09:09:19.571Z</time></trkpt><trkpt lat="45.6665801" lon="11.552375"><ele>137.0</ele><time>2026-04-04T09:09:21.568Z</time></trkpt><trkpt lat="45.666682" lon="11.5523774"><ele>137.0</ele><time>2026-04-04T09:09:23.572Z</time></trkpt><trkpt lat="45.6667789" lon="11.5523805"><ele>137.0</ele><time>2026-04-04T09:09:25.571Z</time></trkpt><trkpt lat="45.6668686" lon="11.552391"><ele>136.66666666666666</ele><time>2026-04-04T09:09:27.57Z</time></trkpt><trkpt lat="45.6669599" lon="11.5523881"><ele>136.33333333333331</ele><time>2026-04-04T09:09:29.569Z</time></trkpt><trkpt lat="45.6670478" lon="11.5523912"><ele>136.0</ele><time>2026-04-04T09:09:31.57Z</time></trkpt><trkpt lat="45.6671184" lon="11.5524093"><ele>135.66666666666666</ele><time>2026-04-04T09:09:33.571Z</time></trkpt><trkpt lat="45.667182" lon="11.5524413"><ele>135.33333333333334</ele><time>2026-04-04T09:09:35.569Z</time></trkpt><trkpt lat="45.667242" lon="11.552494"><ele>135.0</ele><time>2026-04-04T09:09:37.572Z</time></trkpt><trkpt lat="45.6672931" lon="11.5525595"><ele>135.0</ele><time>2026-04-04T09:09:39.571Z</time></trkpt><trkpt lat="45.6673506" lon="11.5526725"><ele>135.0</ele><time>2026-04-04T09:09:42.571Z</time></trkpt><trkpt lat="45.6673886" lon="11.5527489"><ele>135.0</ele><time>2026-04-04T09:09:44.568Z</time></trkpt><trkpt lat="45.6674411" lon="11.5528399"><ele>135.0</ele><time>2026-04-04T09:09:47.559Z</time></trkpt><trkpt lat="45.6674864" lon="11.5529401"><ele>135.0</ele><time>2026-04-04T09:09:50.56Z</time></trkpt><trkpt lat="45.6675319" lon="11.5530304"><ele>135.0</ele><time>2026-04-04T09:09:53.563Z</time></trkpt><trkpt lat="45.6675806" lon="11.5531213"><ele>135.33333333333334</ele><time>2026-04-04T09:09:56.569Z</time></trkpt><trkpt lat="45.6676255" lon="11.5532014"><ele>135.66666666666666</ele><time>2026-04-04T09:09:59.568Z</time></trkpt><trkpt lat="45.6676718" lon="11.5532773"><ele>136.0</ele><time>2026-04-04T09:10:02.572Z</time></trkpt><trkpt lat="45.6677329" lon="11.553342"><ele>136.33333333333331</ele><time>2026-04-04T09:10:05.571Z</time></trkpt><trkpt lat="45.6678087" lon="11.5533893"><ele>136.66666666666666</ele><time>2026-04-04T09:10:08.571Z</time></trkpt><trkpt lat="45.6678935" lon="11.5534146"><ele>137.0</ele><time>2026-04-04T09:10:11.569Z</time></trkpt><trkpt lat="45.6679587" lon="11.5534407"><ele>137.00000000000003</ele><time>2026-04-04T09:10:13.575Z</time></trkpt><trkpt lat="45.6680234" lon="11.5534791"><ele>137.0</ele><time>2026-04-04T09:10:15.57Z</time></trkpt><trkpt lat="45.6680851" lon="11.5535098"><ele>137.0</ele><time>2026-04-04T09:10:17.568Z</time></trkpt><trkpt lat="45.6681503" lon="11.5535206"><ele>137.0</ele><time>2026-04-04T09:10:19.571Z</time></trkpt><trkpt lat="45.6682163" lon="11.5535416"><ele>137.0</ele><time>2026-04-04T09:10:21.57Z</time></trkpt><trkpt lat="45.6682823" lon="11.5535637"><ele>137.00000000000003</ele><time>2026-04-04T09:10:23.57Z</time></trkpt><trkpt lat="45.6683516" lon="11.553582"><ele>137.0</ele><time>2026-04-04T09:10:25.569Z</time></trkpt><trkpt lat="45.6684198" lon="11.5536064"><ele>137.0</ele><time>2026-04-04T09:10:27.572Z</time></trkpt><trkpt lat="45.6684894" lon="11.5536338"><ele>137.0</ele><time>2026-04-04T09:10:29.57Z</time></trkpt><trkpt lat="45.6685587" lon="11.5536885"><ele>137.0</ele><time>2026-04-04T09:10:31.573Z</time></trkpt><trkpt lat="45.6686242" lon="11.5537614"><ele>137.0</ele><time>2026-04-04T09:10:33.565Z</time></trkpt><trkpt lat="45.6686866" lon="11.5538329"><ele>137.0</ele><time>2026-04-04T09:10:35.57Z</time></trkpt><trkpt lat="45.6687451" lon="11.553929"><ele>137.0</ele><time>2026-04-04T09:10:37.57Z</time></trkpt><trkpt lat="45.6687979" lon="11.55406"><ele>136.5</ele><time>2026-04-04T09:10:39.569Z</time></trkpt><trkpt lat="45.6688536" lon="11.5542006"><ele>136.0</ele><time>2026-04-04T09:10:41.57Z</time></trkpt><trkpt lat="45.6689242" lon="11.5543497"><ele>135.5</ele><time>2026-04-04T09:10:43.572Z</time></trkpt><trkpt lat="45.6689595" lon="11.5544289"><ele>135.0</ele><time>2026-04-04T09:10:44.569Z</time></trkpt><trkpt lat="45.6689944" lon="11.5545161"><ele>134.5</ele><time>2026-04-04T09:10:45.568Z</time></trkpt><trkpt lat="45.6690292" lon="11.5546053"><ele>134.0</ele><time>2026-04-04T09:10:46.569Z</time></trkpt><trkpt lat="45.6690634" lon="11.5546949"><ele>133.83333333333331</ele><time>2026-04-04T09:10:47.563Z</time></trkpt><trkpt lat="45.669092" lon="11.5547795"><ele>133.66666666666666</ele><time>2026-04-04T09:10:48.569Z</time></trkpt><trkpt lat="45.6691304" lon="11.554904"><ele>133.5</ele><time>2026-04-04T09:10:50.569Z</time></trkpt><trkpt lat="45.6691597" lon="11.5550147"><ele>133.33333333333334</ele><time>2026-04-04T09:10:53.573Z</time></trkpt><trkpt lat="45.6692422" lon="11.5550518"><ele>133.16666666666669</ele><time>2026-04-04T09:10:57.571Z</time></trkpt><trkpt lat="45.6693341" lon="11.5550155"><ele>133.0</ele><time>2026-04-04T09:11:00.57Z</time></trkpt><trkpt lat="45.6694057" lon="11.5549793"><ele>132.20000000000002</ele><time>2026-04-04T09:11:02.571Z</time></trkpt><trkpt lat="45.6694785" lon="11.5549224"><ele>131.4</ele><time>2026-04-04T09:11:04.568Z</time></trkpt><trkpt lat="45.6695567" lon="11.5548706"><ele>130.60000000000002</ele><time>2026-04-04T09:11:06.569Z</time></trkpt><trkpt lat="45.6696327" lon="11.5548167"><ele>129.8</ele><time>2026-04-04T09:11:08.571Z</time></trkpt><trkpt lat="45.6697111" lon="11.5547448"><ele>129.0</ele><time>2026-04-04T09:11:10.568Z</time></trkpt><trkpt lat="45.6697953" lon="11.554653"><ele>129.0</ele><time>2026-04-04T09:11:12.57Z</time></trkpt><trkpt lat="45.6698995" lon="11.554555"><ele>129.0</ele><time>2026-04-04T09:11:14.571Z</time></trkpt><trkpt lat="45.6699592" lon="11.5545058"><ele>129.0</ele><time>2026-04-04T09:11:15.568Z</time></trkpt><trkpt lat="45.6700206" lon="11.5544657"><ele>129.0</ele><time>2026-04-04T09:11:16.57Z</time></trkpt><trkpt lat="45.6700873" lon="11.554427"><ele>129.0</ele><time>2026-04-04T09:11:17.57Z</time></trkpt><trkpt lat="45.670158" lon="11.554386"><ele>129.0</ele><time>2026-04-04T09:11:18.568Z</time></trkpt><trkpt lat="45.6702309" lon="11.5543477"><ele>127.83333333333333</ele><time>2026-04-04T09:11:19.571Z</time></trkpt><trkpt lat="45.6703062" lon="11.5543086"><ele>126.66666666666666</ele><time>2026-04-04T09:11:20.571Z</time></trkpt><trkpt lat="45.6703832" lon="11.5542708"><ele>125.5</ele><time>2026-04-04T09:11:21.569Z</time></trkpt><trkpt lat="45.6704616" lon="11.5542377"><ele>124.33333333333333</ele><time>2026-04-04T09:11:22.572Z</time></trkpt><trkpt lat="45.6705439" lon="11.5542125"><ele>123.16666666666666</ele><time>2026-04-04T09:11:23.575Z</time></trkpt><trkpt lat="45.670629" lon="11.5541929"><ele>122.0</ele><time>2026-04-04T09:11:24.563Z</time></trkpt><trkpt lat="45.6707134" lon="11.5541757"><ele>121.99999999999999</ele><time>2026-04-04T09:11:25.569Z</time></trkpt><trkpt lat="45.6707959" lon="11.5541488"><ele>122.0</ele><time>2026-04-04T09:11:26.568Z</time></trkpt><trkpt lat="45.6708775" lon="11.5541178"><ele>122.0</ele><time>2026-04-04T09:11:27.567Z</time></trkpt><trkpt lat="45.6709535" lon="11.5540815"><ele>122.0</ele><time>2026-04-04T09:11:28.57Z</time></trkpt><trkpt lat="45.6710267" lon="11.5540366"><ele>121.99999999999999</ele><time>2026-04-04T09:11:29.569Z</time></trkpt><trkpt lat="45.6710943" lon="11.5539829"><ele>122.0</ele><time>2026-04-04T09:11:30.571Z</time></trkpt><trkpt lat="45.6711563" lon="11.5539257"><ele>121.85714285714283</ele><time>2026-04-04T09:11:31.57Z</time></trkpt><trkpt lat="45.6712167" lon="11.5538654"><ele>121.71428571428571</ele><time>2026-04-04T09:11:32.569Z</time></trkpt><trkpt lat="45.67128" lon="11.5538104"><ele>121.57142857142856</ele><time>2026-04-04T09:11:33.571Z</time></trkpt><trkpt lat="45.671344" lon="11.5537619"><ele>121.42857142857142</ele><time>2026-04-04T09:11:34.571Z</time></trkpt><trkpt lat="45.6714072" lon="11.5537166"><ele>121.28571428571428</ele><time>2026-04-04T09:11:35.569Z</time></trkpt><trkpt lat="45.6714692" lon="11.5536761"><ele>121.14285714285714</ele><time>2026-04-04T09:11:36.562Z</time></trkpt><trkpt lat="45.6715345" lon="11.5536512"><ele>121.0</ele><time>2026-04-04T09:11:37.568Z</time></trkpt><trkpt lat="45.6716459" lon="11.5536302"><ele>121.0</ele><time>2026-04-04T09:11:39.568Z</time></trkpt><trkpt lat="45.6717164" lon="11.5536259"><ele>120.99999999999999</ele><time>2026-04-04T09:11:41.569Z</time></trkpt><trkpt lat="45.6717783" lon="11.5535696"><ele>121.0</ele><time>2026-04-04T09:11:44.568Z</time></trkpt><trkpt lat="45.6717905" lon="11.5534739"><ele>121.0</ele><time>2026-04-04T09:11:46.569Z</time></trkpt><trkpt lat="45.671792" lon="11.5533659"><ele>120.99999999999999</ele><time>2026-04-04T09:11:48.57Z</time></trkpt><trkpt lat="45.6718067" lon="11.5532717"><ele>121.0</ele><time>2026-04-04T09:11:50.571Z</time></trkpt><trkpt lat="45.6718249" lon="11.553157"><ele>121.0</ele><time>2026-04-04T09:11:53.572Z</time></trkpt><trkpt lat="45.6718463" lon="11.5530413"><ele>121.00000000000001</ele><time>2026-04-04T09:11:56.57Z</time></trkpt><trkpt lat="45.6718786" lon="11.5529191"><ele>121.0</ele><time>2026-04-04T09:11:59.569Z</time></trkpt><trkpt lat="45.6719107" lon="11.5527946"><ele>121.0</ele><time>2026-04-04T09:12:02.571Z</time></trkpt><trkpt lat="45.671936" lon="11.5527009"><ele>121.0</ele><time>2026-04-04T09:12:04.572Z</time></trkpt><trkpt lat="45.67196" lon="11.5526153"><ele>121.00000000000001</ele><time>2026-04-04T09:12:06.571Z</time></trkpt><trkpt lat="45.6720134" lon="11.5525275"><ele>121.0</ele><time>2026-04-04T09:12:09.57Z</time></trkpt><trkpt lat="45.6720723" lon="11.5524195"><ele>120.00000000000001</ele><time>2026-04-04T09:12:11.571Z</time></trkpt><trkpt lat="45.6721394" lon="11.5522651"><ele>119.0</ele><time>2026-04-04T09:12:13.573Z</time></trkpt><trkpt lat="45.672187" lon="11.5521938"><ele>118.0</ele><time>2026-04-04T09:12:14.57Z</time></trkpt><trkpt lat="45.672244" lon="11.5521216"><ele>117.0</ele><time>2026-04-04T09:12:15.569Z</time></trkpt><trkpt lat="45.6723041" lon="11.5520442"><ele>116.00000000000001</ele><time>2026-04-04T09:12:16.57Z</time></trkpt><trkpt lat="45.6723676" lon="11.5519612"><ele>115.0</ele><time>2026-04-04T09:12:17.571Z</time></trkpt><trkpt lat="45.672432" lon="11.5518738"><ele>114.2</ele><time>2026-04-04T09:12:18.569Z</time></trkpt><trkpt lat="45.6725" lon="11.5517852"><ele>113.4</ele><time>2026-04-04T09:12:19.57Z</time></trkpt><trkpt lat="45.6725689" lon="11.5516933"><ele>112.6</ele><time>2026-04-04T09:12:20.569Z</time></trkpt><trkpt lat="45.672639" lon="11.5515987"><ele>111.8</ele><time>2026-04-04T09:12:21.57Z</time></trkpt><trkpt lat="45.6727113" lon="11.5515014"><ele>111.0</ele><time>2026-04-04T09:12:22.57Z</time></trkpt><trkpt lat="45.6727815" lon="11.5514014"><ele>109.5</ele><time>2026-04-04T09:12:23.573Z</time></trkpt><trkpt lat="45.6728488" lon="11.5513003"><ele>108.0</ele><time>2026-04-04T09:12:24.57Z</time></trkpt><trkpt lat="45.6729087" lon="11.5512091"><ele>106.5</ele><time>2026-04-04T09:12:25.567Z</time></trkpt><trkpt lat="45.672964" lon="11.5511364"><ele>105.0</ele><time>2026-04-04T09:12:26.568Z</time></trkpt><trkpt lat="45.6730178" lon="11.5510717"><ele>103.5</ele><time>2026-04-04T09:12:27.57Z</time></trkpt><trkpt lat="45.6731" lon="11.5509513"><ele>102.0</ele><time>2026-04-04T09:12:29.569Z</time></trkpt><trkpt lat="45.673152" lon="11.5508143"><ele>101.66666666666667</ele><time>2026-04-04T09:12:31.571Z</time></trkpt><trkpt lat="45.6731423" lon="11.5506437"><ele>101.33333333333334</ele><time>2026-04-04T09:12:33.572Z</time></trkpt><trkpt lat="45.673103" lon="11.5505521"><ele>101.0</ele><time>2026-04-04T09:12:34.568Z</time></trkpt><trkpt lat="45.6730522" lon="11.5504733"><ele>100.66666666666667</ele><time>2026-04-04T09:12:35.568Z</time></trkpt><trkpt lat="45.6729914" lon="11.5504094"><ele>100.33333333333334</ele><time>2026-04-04T09:12:36.569Z</time></trkpt><trkpt lat="45.6729203" lon="11.5503596"><ele>100.0</ele><time>2026-04-04T09:12:37.573Z</time></trkpt><trkpt lat="45.672858" lon="11.550312"><ele>99.16666666666667</ele><time>2026-04-04T09:12:38.572Z</time></trkpt><trkpt lat="45.6727948" lon="11.5502202"><ele>98.33333333333334</ele><time>2026-04-04T09:12:40.569Z</time></trkpt><trkpt lat="45.6728147" lon="11.5500799"><ele>97.5</ele><time>2026-04-04T09:12:43.572Z</time></trkpt><trkpt lat="45.6728589" lon="11.5500024"><ele>96.66666666666667</ele><time>2026-04-04T09:12:44.569Z</time></trkpt><trkpt lat="45.6729142" lon="11.5499271"><ele>95.83333333333334</ele><time>2026-04-04T09:12:45.569Z</time></trkpt><trkpt lat="45.6729724" lon="11.5498603"><ele>95.0</ele><time>2026-04-04T09:12:46.571Z</time></trkpt><trkpt lat="45.673031" lon="11.5497852"><ele>95.0</ele><time>2026-04-04T09:12:47.569Z</time></trkpt><trkpt lat="45.6730809" lon="11.549708"><ele>95.0</ele><time>2026-04-04T09:12:48.571Z</time></trkpt><trkpt lat="45.6731511" lon="11.5495902"><ele>95.0</ele><time>2026-04-04T09:12:50.573Z</time></trkpt><trkpt lat="45.673197" lon="11.5495166"><ele>95.0</ele><time>2026-04-04T09:12:52.569Z</time></trkpt><trkpt lat="45.6732406" lon="11.5494383"><ele>95.0</ele><time>2026-04-04T09:12:55.568Z</time></trkpt><trkpt lat="45.6731795" lon="11.5494605"><ele>95.0</ele><time>2026-04-04T09:13:01.568Z</time></trkpt><trkpt lat="45.6731501" lon="11.5495506"><ele>95.0</ele><time>2026-04-04T09:13:04.571Z</time></trkpt><trkpt lat="45.6731121" lon="11.5496305"><ele>95.0</ele><time>2026-04-04T09:13:08.57Z</time></trkpt><trkpt lat="45.6730623" lon="11.549718"><ele>95.0</ele><time>2026-04-04T09:13:12.57Z</time></trkpt><trkpt lat="45.6730101" lon="11.5497993"><ele>95.0</ele><time>2026-04-04T09:13:16.572Z</time></trkpt><trkpt lat="45.6729545" lon="11.5498654"><ele>95.0</ele><time>2026-04-04T09:13:20.569Z</time></trkpt><trkpt lat="45.6729038" lon="11.5499323"><ele>95.0</ele><time>2026-04-04T09:13:24.569Z</time></trkpt><trkpt lat="45.6728631" lon="11.5500021"><ele>95.0</ele><time>2026-04-04T09:13:27.57Z</time></trkpt><trkpt lat="45.6728208" lon="11.5500844"><ele>95.0</ele><time>2026-04-04T09:13:32.568Z</time></trkpt><trkpt lat="45.6728185" lon="11.5501858"><ele>95.0</ele><time>2026-04-04T09:13:38.57Z</time></trkpt><trkpt lat="45.6728739" lon="11.5502604"><ele>95.0</ele><time>2026-04-04T09:13:44.569Z</time></trkpt><trkpt lat="45.6729405" lon="11.5503258"><ele>95.0</ele><time>2026-04-04T09:13:49.569Z</time></trkpt><trkpt lat="45.672996" lon="11.5503922"><ele>95.0</ele><time>2026-04-04T09:13:53.569Z</time></trkpt><trkpt lat="45.6730595" lon="11.5504606"><ele>95.0</ele><time>2026-04-04T09:13:57.57Z</time></trkpt><trkpt lat="45.6730989" lon="11.5505401"><ele>95.0</ele><time>2026-04-04T09:14:00.571Z</time></trkpt><trkpt lat="45.6731384" lon="11.5506367"><ele>95.71428571428572</ele><time>2026-04-04T09:14:04.569Z</time></trkpt><trkpt lat="45.6731601" lon="11.5507311"><ele>96.42857142857143</ele><time>2026-04-04T09:14:08.57Z</time></trkpt><trkpt lat="45.6731538" lon="11.5508323"><ele>97.14285714285714</ele><time>2026-04-04T09:14:12.569Z</time></trkpt><trkpt lat="45.673137" lon="11.5509219"><ele>97.85714285714286</ele><time>2026-04-04T09:14:16.571Z</time></trkpt><trkpt lat="45.6730923" lon="11.5509963"><ele>98.57142857142857</ele><time>2026-04-04T09:14:20.565Z</time></trkpt><trkpt lat="45.673042" lon="11.5510591"><ele>99.28571428571429</ele><time>2026-04-04T09:14:24.569Z</time></trkpt><trkpt lat="45.673001" lon="11.5511409"><ele>100.0</ele><time>2026-04-04T09:14:29.569Z</time></trkpt><trkpt lat="45.6729502" lon="11.5512002"><ele>100.28571428571429</ele><time>2026-04-04T09:14:34.572Z</time></trkpt><trkpt lat="45.672904" lon="11.5512621"><ele>100.57142857142857</ele><time>2026-04-04T09:14:39.573Z</time></trkpt><trkpt lat="45.6728528" lon="11.551323"><ele>100.85714285714286</ele><time>2026-04-04T09:14:44.571Z</time></trkpt><trkpt lat="45.6728136" lon="11.5513936"><ele>101.14285714285714</ele><time>2026-04-04T09:14:49.571Z</time></trkpt><trkpt lat="45.6727627" lon="11.5514642"><ele>101.42857142857143</ele><time>2026-04-04T09:14:55.571Z</time></trkpt><trkpt lat="45.6727204" lon="11.5515487"><ele>101.71428571428572</ele><time>2026-04-04T09:15:00.564Z</time></trkpt><trkpt lat="45.6726681" lon="11.5516206"><ele>102.0</ele><time>2026-04-04T09:15:05.573Z</time></trkpt><trkpt lat="45.6726137" lon="11.5516764"><ele>103.28571428571429</ele><time>2026-04-04T09:15:10.57Z</time></trkpt><trkpt lat="45.6725596" lon="11.5517422"><ele>104.57142857142858</ele><time>2026-04-04T09:15:15.569Z</time></trkpt><trkpt lat="45.6725043" lon="11.5518082"><ele>105.85714285714286</ele><time>2026-04-04T09:15:20.572Z</time></trkpt><trkpt lat="45.6724444" lon="11.551878"><ele>107.14285714285714</ele><time>2026-04-04T09:15:25.57Z</time></trkpt><trkpt lat="45.6723925" lon="11.5519523"><ele>108.42857142857143</ele><time>2026-04-04T09:15:30.573Z</time></trkpt><trkpt lat="45.672338" lon="11.5520237"><ele>109.71428571428571</ele><time>2026-04-04T09:15:35.573Z</time></trkpt><trkpt lat="45.6722817" lon="11.5520918"><ele>111.0</ele><time>2026-04-04T09:15:40.57Z</time></trkpt><trkpt lat="45.6722234" lon="11.5521644"><ele>111.57142857142857</ele><time>2026-04-04T09:15:45.57Z</time></trkpt><trkpt lat="45.6721651" lon="11.5522367"><ele>112.14285714285714</ele><time>2026-04-04T09:15:50.574Z</time></trkpt><trkpt lat="45.6721182" lon="11.5523215"><ele>112.71428571428571</ele><time>2026-04-04T09:15:55.568Z</time></trkpt><trkpt lat="45.6720728" lon="11.5523906"><ele>113.28571428571428</ele><time>2026-04-04T09:15:59.569Z</time></trkpt><trkpt lat="45.6720439" lon="11.5524855"><ele>113.85714285714286</ele><time>2026-04-04T09:16:04.573Z</time></trkpt><trkpt lat="45.6720003" lon="11.5525713"><ele>114.42857142857142</ele><time>2026-04-04T09:16:09.572Z</time></trkpt><trkpt lat="45.6719618" lon="11.5526503"><ele>114.99999999999999</ele><time>2026-04-04T09:16:13.575Z</time></trkpt><trkpt lat="45.6719291" lon="11.552738"><ele>115.28571428571428</ele><time>2026-04-04T09:16:17.572Z</time></trkpt><trkpt lat="45.6719001" lon="11.552838"><ele>115.57142857142857</ele><time>2026-04-04T09:16:21.572Z</time></trkpt><trkpt lat="45.6718695" lon="11.5529389"><ele>115.85714285714286</ele><time>2026-04-04T09:16:25.57Z</time></trkpt><trkpt lat="45.6718432" lon="11.5530527"><ele>116.14285714285714</ele><time>2026-04-04T09:16:29.571Z</time></trkpt><trkpt lat="45.6718271" lon="11.5531486"><ele>116.42857142857144</ele><time>2026-04-04T09:16:32.57Z</time></trkpt><trkpt lat="45.6718239" lon="11.5532417"><ele>116.71428571428572</ele><time>2026-04-04T09:16:34.572Z</time></trkpt><trkpt lat="45.6718077" lon="11.5533426"><ele>117.0</ele><time>2026-04-04T09:16:36.573Z</time></trkpt><trkpt lat="45.6717888" lon="11.5534528"><ele>117.33333333333333</ele><time>2026-04-04T09:16:38.572Z</time></trkpt><trkpt lat="45.6717672" lon="11.5535609"><ele>117.66666666666666</ele><time>2026-04-04T09:16:40.573Z</time></trkpt><trkpt lat="45.6717216" lon="11.553633"><ele>118.0</ele><time>2026-04-04T09:16:42.573Z</time></trkpt><trkpt lat="45.6716558" lon="11.55366"><ele>118.33333333333333</ele><time>2026-04-04T09:16:44.57Z</time></trkpt><trkpt lat="45.6715788" lon="11.5536813"><ele>118.66666666666666</ele><time>2026-04-04T09:16:47.573Z</time></trkpt><trkpt lat="45.6715042" lon="11.5537019"><ele>119.0</ele><time>2026-04-04T09:16:50.571Z</time></trkpt><trkpt lat="45.6714256" lon="11.5537385"><ele>119.0</ele><time>2026-04-04T09:16:53.575Z</time></trkpt><trkpt lat="45.6713609" lon="11.553764"><ele>119.0</ele><time>2026-04-04T09:16:55.571Z</time></trkpt><trkpt lat="45.6712983" lon="11.5538035"><ele>119.0</ele><time>2026-04-04T09:16:58.571Z</time></trkpt><trkpt lat="45.6712329" lon="11.5538497"><ele>119.0</ele><time>2026-04-04T09:17:01.574Z</time></trkpt><trkpt lat="45.6711676" lon="11.5539146"><ele>119.0</ele><time>2026-04-04T09:17:04.569Z</time></trkpt><trkpt lat="45.6711083" lon="11.553987"><ele>119.0</ele><time>2026-04-04T09:17:07.57Z</time></trkpt><trkpt lat="45.6710512" lon="11.5540503"><ele>119.0</ele><time>2026-04-04T09:17:10.573Z</time></trkpt><trkpt lat="45.6709805" lon="11.5540968"><ele>119.42857142857143</ele><time>2026-04-04T09:17:13.571Z</time></trkpt><trkpt lat="45.6709093" lon="11.5541316"><ele>119.85714285714286</ele><time>2026-04-04T09:17:16.573Z</time></trkpt><trkpt lat="45.6708311" lon="11.5541603"><ele>120.28571428571428</ele><time>2026-04-04T09:17:19.569Z</time></trkpt><trkpt lat="45.6707617" lon="11.5541774"><ele>120.71428571428571</ele><time>2026-04-04T09:17:22.572Z</time></trkpt><trkpt lat="45.6706946" lon="11.5542028"><ele>121.14285714285714</ele><time>2026-04-04T09:17:25.57Z</time></trkpt><trkpt lat="45.6706258" lon="11.5542211"><ele>121.57142857142856</ele><time>2026-04-04T09:17:28.569Z</time></trkpt><trkpt lat="45.6705575" lon="11.5542334"><ele>121.99999999999999</ele><time>2026-04-04T09:17:31.573Z</time></trkpt><trkpt lat="45.6704835" lon="11.554263"><ele>121.99999999999999</ele><time>2026-04-04T09:17:34.565Z</time></trkpt><trkpt lat="45.6704138" lon="11.5542978"><ele>122.0</ele><time>2026-04-04T09:17:37.574Z</time></trkpt><trkpt lat="45.67035" lon="11.5543295"><ele>121.99999999999999</ele><time>2026-04-04T09:17:40.573Z</time></trkpt><trkpt lat="45.6702893" lon="11.5543679"><ele>121.99999999999999</ele><time>2026-04-04T09:17:43.573Z</time></trkpt><trkpt lat="45.6702271" lon="11.554407"><ele>122.0</ele><time>2026-04-04T09:17:46.571Z</time></trkpt><trkpt lat="45.6701639" lon="11.5544479"><ele>121.99999999999999</ele><time>2026-04-04T09:17:49.574Z</time></trkpt><trkpt lat="45.6701008" lon="11.554487"><ele>121.99999999999999</ele><time>2026-04-04T09:17:52.574Z</time></trkpt><trkpt lat="45.6700354" lon="11.5545278"><ele>123.16666666666666</ele><time>2026-04-04T09:17:55.568Z</time></trkpt><trkpt lat="45.6699651" lon="11.5545714"><ele>124.33333333333333</ele><time>2026-04-04T09:17:58.571Z</time></trkpt><trkpt lat="45.6698974" lon="11.5546253"><ele>125.5</ele><time>2026-04-04T09:18:01.574Z</time></trkpt><trkpt lat="45.6698344" lon="11.5546883"><ele>126.66666666666666</ele><time>2026-04-04T09:18:04.573Z</time></trkpt><trkpt lat="45.6697733" lon="11.5547434"><ele>127.83333333333333</ele><time>2026-04-04T09:18:07.571Z</time></trkpt><trkpt lat="45.6697041" lon="11.5548015"><ele>129.0</ele><time>2026-04-04T09:18:10.572Z</time></trkpt><trkpt lat="45.669648" lon="11.5548615"><ele>128.99999999999997</ele><time>2026-04-04T09:18:13.571Z</time></trkpt><trkpt lat="45.6695909" lon="11.5549232"><ele>129.0</ele><time>2026-04-04T09:18:16.57Z</time></trkpt><trkpt lat="45.6695217" lon="11.5549705"><ele>129.0</ele><time>2026-04-04T09:18:19.568Z</time></trkpt><trkpt lat="45.6694604" lon="11.5550126"><ele>129.0</ele><time>2026-04-04T09:18:22.574Z</time></trkpt><trkpt lat="45.6694423" lon="11.5551003"><ele>129.0</ele><time>2026-04-04T09:18:26.575Z</time></trkpt><trkpt lat="45.6694813" lon="11.5551725"><ele>128.99999999999997</ele><time>2026-04-04T09:19:07.569Z</time></trkpt><trkpt lat="45.6694729" lon="11.555278"><ele>129.0</ele><time>2026-04-04T09:19:12.576Z</time></trkpt><trkpt lat="45.6694584" lon="11.5553672"><ele>128.66666666666666</ele><time>2026-04-04T09:19:17.569Z</time></trkpt><trkpt lat="45.6694514" lon="11.5554808"><ele>128.33333333333334</ele><time>2026-04-04T09:19:21.574Z</time></trkpt><trkpt lat="45.6694555" lon="11.5555921"><ele>128.0</ele><time>2026-04-04T09:19:25.571Z</time></trkpt><trkpt lat="45.6694488" lon="11.5557063"><ele>127.66666666666667</ele><time>2026-04-04T09:19:29.569Z</time></trkpt><trkpt lat="45.6694386" lon="11.5557961"><ele>127.33333333333334</ele><time>2026-04-04T09:19:34.567Z</time></trkpt><trkpt lat="45.669434" lon="11.5559262"><ele>127.0</ele><time>2026-04-04T09:19:37.572Z</time></trkpt><trkpt lat="45.6694516" lon="11.55608"><ele>126.39999999999999</ele><time>2026-04-04T09:19:39.568Z</time></trkpt><trkpt lat="45.6694852" lon="11.5562039"><ele>125.79999999999998</ele><time>2026-04-04T09:19:41.569Z</time></trkpt><trkpt lat="45.6694852" lon="11.5563247"><ele>125.2</ele><time>2026-04-04T09:19:43.571Z</time></trkpt><trkpt lat="45.6694377" lon="11.5564993"><ele>124.6</ele><time>2026-04-04T09:19:45.57Z</time></trkpt><trkpt lat="45.6694036" lon="11.5566453"><ele>124.0</ele><time>2026-04-04T09:19:47.565Z</time></trkpt><trkpt lat="45.6694009" lon="11.5567639"><ele>124.00000000000001</ele><time>2026-04-04T09:19:49.561Z</time></trkpt><trkpt lat="45.669437" lon="11.5568791"><ele>124.0</ele><time>2026-04-04T09:19:51.567Z</time></trkpt><trkpt lat="45.6694819" lon="11.557016"><ele>124.0</ele><time>2026-04-04T09:19:53.563Z</time></trkpt><trkpt lat="45.6695218" lon="11.5571362"><ele>124.0</ele><time>2026-04-04T09:19:55.566Z</time></trkpt><trkpt lat="45.6695255" lon="11.5572689"><ele>124.00000000000001</ele><time>2026-04-04T09:20:06.564Z</time></trkpt><trkpt lat="45.6695752" lon="11.5573309"><ele>124.0</ele><time>2026-04-04T09:20:07.565Z</time></trkpt><trkpt lat="45.6696144" lon="11.5574082"><ele>121.66666666666667</ele><time>2026-04-04T09:20:09.567Z</time></trkpt><trkpt lat="45.6696792" lon="11.5574245"><ele>119.33333333333334</ele><time>2026-04-04T09:20:11.565Z</time></trkpt><trkpt lat="45.6697531" lon="11.5573945"><ele>117.0</ele><time>2026-04-04T09:20:13.568Z</time></trkpt><trkpt lat="45.6698364" lon="11.5573573"><ele>114.66666666666666</ele><time>2026-04-04T09:20:15.568Z</time></trkpt><trkpt lat="45.6699417" lon="11.5573086"><ele>112.33333333333333</ele><time>2026-04-04T09:20:17.562Z</time></trkpt><trkpt lat="45.6700325" lon="11.5572593"><ele>110.0</ele><time>2026-04-04T09:20:19.567Z</time></trkpt><trkpt lat="45.6701042" lon="11.5572035"><ele>109.99999999999999</ele><time>2026-04-04T09:20:22.563Z</time></trkpt><trkpt lat="45.6701749" lon="11.5571996"><ele>110.0</ele><time>2026-04-04T09:20:25.566Z</time></trkpt><trkpt lat="45.6702453" lon="11.5572082"><ele>110.0</ele><time>2026-04-04T09:20:29.568Z</time></trkpt><trkpt lat="45.6703131" lon="11.557185"><ele>110.0</ele><time>2026-04-04T09:20:32.568Z</time></trkpt><trkpt lat="45.6703555" lon="11.5571182"><ele>110.0</ele><time>2026-04-04T09:20:35.566Z</time></trkpt><trkpt lat="45.6703935" lon="11.5570289"><ele>109.99999999999999</ele><time>2026-04-04T09:20:40.569Z</time></trkpt><trkpt lat="45.670424" lon="11.5569396"><ele>110.0</ele><time>2026-04-04T09:20:45.567Z</time></trkpt><trkpt lat="45.6703701" lon="11.5570431"><ele>108.49999999999999</ele><time>2026-04-04T09:21:06.567Z</time></trkpt><trkpt lat="45.6703299" lon="11.5571301"><ele>107.0</ele><time>2026-04-04T09:21:08.568Z</time></trkpt><trkpt lat="45.6702984" lon="11.5572158"><ele>105.5</ele><time>2026-04-04T09:21:10.564Z</time></trkpt><trkpt lat="45.6702925" lon="11.5573272"><ele>104.0</ele><time>2026-04-04T09:21:13.567Z</time></trkpt><trkpt lat="45.6703243" lon="11.5574162"><ele>102.49999999999999</ele><time>2026-04-04T09:21:16.565Z</time></trkpt><trkpt lat="45.6703639" lon="11.5575004"><ele>101.0</ele><time>2026-04-04T09:21:18.568Z</time></trkpt><trkpt lat="45.6703988" lon="11.5576248"><ele>101.0</ele><time>2026-04-04T09:21:21.568Z</time></trkpt><trkpt lat="45.6704016" lon="11.5577748"><ele>101.0</ele><time>2026-04-04T09:21:23.568Z</time></trkpt><trkpt lat="45.6704092" lon="11.5579576"><ele>101.0</ele><time>2026-04-04T09:21:25.567Z</time></trkpt><trkpt lat="45.670409" lon="11.5580691"><ele>101.0</ele><time>2026-04-04T09:21:26.566Z</time></trkpt><trkpt lat="45.6704069" lon="11.5581945"><ele>101.0</ele><time>2026-04-04T09:21:27.567Z</time></trkpt><trkpt lat="45.6703982" lon="11.5583262"><ele>98.8</ele><time>2026-04-04T09:21:28.567Z</time></trkpt><trkpt lat="45.6703866" lon="11.5584618"><ele>96.6</ele><time>2026-04-04T09:21:29.567Z</time></trkpt><trkpt lat="45.6703857" lon="11.5585995"><ele>94.4</ele><time>2026-04-04T09:21:30.567Z</time></trkpt><trkpt lat="45.6703953" lon="11.5587341"><ele>92.2</ele><time>2026-04-04T09:21:31.564Z</time></trkpt><trkpt lat="45.6704139" lon="11.5588722"><ele>90.0</ele><time>2026-04-04T09:21:32.566Z</time></trkpt><trkpt lat="45.670431" lon="11.5590168"><ele>89.4</ele><time>2026-04-04T09:21:33.57Z</time></trkpt><trkpt lat="45.6704388" lon="11.5591679"><ele>88.8</ele><time>2026-04-04T09:21:34.571Z</time></trkpt><trkpt lat="45.6704339" lon="11.5593262"><ele>88.19999999999999</ele><time>2026-04-04T09:21:35.569Z</time></trkpt><trkpt lat="45.67042" lon="11.5594724"><ele>87.6</ele><time>2026-04-04T09:21:36.567Z</time></trkpt><trkpt lat="45.6703953" lon="11.5595981"><ele>87.0</ele><time>2026-04-04T09:21:37.571Z</time></trkpt><trkpt lat="45.6703513" lon="11.5597002"><ele>86.83333333333333</ele><time>2026-04-04T09:21:38.567Z</time></trkpt><trkpt lat="45.6702851" lon="11.5597727"><ele>86.66666666666667</ele><time>2026-04-04T09:21:39.566Z</time></trkpt><trkpt lat="45.6702095" lon="11.55983"><ele>86.5</ele><time>2026-04-04T09:21:40.566Z</time></trkpt><trkpt lat="45.67013" lon="11.5598827"><ele>86.33333333333334</ele><time>2026-04-04T09:21:41.568Z</time></trkpt><trkpt lat="45.6700509" lon="11.5599449"><ele>86.16666666666667</ele><time>2026-04-04T09:21:42.57Z</time></trkpt><trkpt lat="45.6699779" lon="11.5600211"><ele>86.0</ele><time>2026-04-04T09:21:43.569Z</time></trkpt><trkpt lat="45.6699204" lon="11.5601011"><ele>86.0</ele><time>2026-04-04T09:21:44.567Z</time></trkpt><trkpt lat="45.6698718" lon="11.5602321"><ele>86.0</ele><time>2026-04-04T09:21:46.567Z</time></trkpt><trkpt lat="45.6698483" lon="11.5603464"><ele>86.0</ele><time>2026-04-04T09:21:49.569Z</time></trkpt><trkpt lat="45.6698043" lon="11.5604193"><ele>86.0</ele><time>2026-04-04T09:21:52.568Z</time></trkpt><trkpt lat="45.6698518" lon="11.5603461"><ele>86.0</ele><time>2026-04-04T09:21:59.57Z</time></trkpt><trkpt lat="45.6698418" lon="11.5602419"><ele>86.0</ele><time>2026-04-04T09:22:03.571Z</time></trkpt><trkpt lat="45.6698762" lon="11.5601418"><ele>86.00000000000001</ele><time>2026-04-04T09:22:08.572Z</time></trkpt><trkpt lat="45.6699197" lon="11.5600533"><ele>86.0</ele><time>2026-04-04T09:22:12.57Z</time></trkpt><trkpt lat="45.6699182" lon="11.5599475"><ele>86.0</ele><time>2026-04-04T09:22:17.572Z</time></trkpt><trkpt lat="45.6699372" lon="11.5598473"><ele>86.0</ele><time>2026-04-04T09:22:22.57Z</time></trkpt><trkpt lat="45.6699857" lon="11.5597791"><ele>86.0</ele><time>2026-04-04T09:22:26.57Z</time></trkpt><trkpt lat="45.6700378" lon="11.5597195"><ele>86.00000000000001</ele><time>2026-04-04T09:22:30.57Z</time></trkpt><trkpt lat="45.6700882" lon="11.5596637"><ele>86.0</ele><time>2026-04-04T09:22:34.571Z</time></trkpt><trkpt lat="45.6701433" lon="11.5596074"><ele>86.00000000000001</ele><time>2026-04-04T09:22:38.574Z</time></trkpt><trkpt lat="45.6701992" lon="11.5595637"><ele>86.0</ele><time>2026-04-04T09:22:42.57Z</time></trkpt><trkpt lat="45.6702465" lon="11.5594946"><ele>86.0</ele><time>2026-04-04T09:22:46.571Z</time></trkpt><trkpt lat="45.6702801" lon="11.5594016"><ele>86.0</ele><time>2026-04-04T09:22:51.57Z</time></trkpt><trkpt lat="45.6702775" lon="11.559307"><ele>86.0</ele><time>2026-04-04T09:22:56.57Z</time></trkpt><trkpt lat="45.6702791" lon="11.559205"><ele>86.00000000000001</ele><time>2026-04-04T09:23:02.572Z</time></trkpt><trkpt lat="45.670282" lon="11.5591124"><ele>86.0</ele><time>2026-04-04T09:23:07.572Z</time></trkpt><trkpt lat="45.6702655" lon="11.5590156"><ele>87.00000000000001</ele><time>2026-04-04T09:23:13.576Z</time></trkpt><trkpt lat="45.6702506" lon="11.5589231"><ele>88.0</ele><time>2026-04-04T09:23:19.57Z</time></trkpt><trkpt lat="45.6702383" lon="11.558831"><ele>89.0</ele><time>2026-04-04T09:23:25.565Z</time></trkpt><trkpt lat="45.6702237" lon="11.5587322"><ele>90.0</ele><time>2026-04-04T09:23:31.573Z</time></trkpt><trkpt lat="45.6701981" lon="11.558631"><ele>91.0</ele><time>2026-04-04T09:23:37.573Z</time></trkpt><trkpt lat="45.6701811" lon="11.5585252"><ele>92.00000000000001</ele><time>2026-04-04T09:23:43.572Z</time></trkpt><trkpt lat="45.6701604" lon="11.5584247"><ele>93.0</ele><time>2026-04-04T09:23:48.572Z</time></trkpt><trkpt lat="45.6701378" lon="11.5583297"><ele>94.57142857142858</ele><time>2026-04-04T09:23:54.572Z</time></trkpt><trkpt lat="45.6701331" lon="11.5582363"><ele>96.14285714285714</ele><time>2026-04-04T09:23:59.573Z</time></trkpt><trkpt lat="45.6701594" lon="11.5581336"><ele>97.71428571428572</ele><time>2026-04-04T09:24:04.572Z</time></trkpt><trkpt lat="45.6701866" lon="11.558041"><ele>99.28571428571429</ele><time>2026-04-04T09:24:08.571Z</time></trkpt><trkpt lat="45.6702093" lon="11.5579422"><ele>100.85714285714286</ele><time>2026-04-04T09:24:13.574Z</time></trkpt><trkpt lat="45.6702109" lon="11.5578432"><ele>102.42857142857143</ele><time>2026-04-04T09:24:19.572Z</time></trkpt><trkpt lat="45.6701872" lon="11.5577593"><ele>104.0</ele><time>2026-04-04T09:24:25.572Z</time></trkpt><trkpt lat="45.6701153" lon="11.5577439"><ele>104.85714285714285</ele><time>2026-04-04T09:24:30.573Z</time></trkpt><trkpt lat="45.6700564" lon="11.5576966"><ele>105.71428571428572</ele><time>2026-04-04T09:24:34.57Z</time></trkpt><trkpt lat="45.6700323" lon="11.5575947"><ele>106.57142857142857</ele><time>2026-04-04T09:24:38.572Z</time></trkpt><trkpt lat="45.6699833" lon="11.557517"><ele>107.42857142857142</ele><time>2026-04-04T09:24:44.572Z</time></trkpt><trkpt lat="45.6699169" lon="11.5575305"><ele>108.28571428571428</ele><time>2026-04-04T09:24:49.572Z</time></trkpt><trkpt lat="45.6698469" lon="11.5575421"><ele>109.14285714285714</ele><time>2026-04-04T09:24:54.57Z</time></trkpt><trkpt lat="45.6698003" lon="11.5574772"><ele>110.0</ele><time>2026-04-04T09:25:12.571Z</time></trkpt><trkpt lat="45.6698885" lon="11.5574079"><ele>110.0</ele><time>2026-04-04T09:25:16.572Z</time></trkpt><trkpt lat="45.6699911" lon="11.5573751"><ele>110.0</ele><time>2026-04-04T09:25:18.571Z</time></trkpt><trkpt lat="45.6700509" lon="11.5573365"><ele>110.0</ele><time>2026-04-04T09:25:19.571Z</time></trkpt><trkpt lat="45.6701604" lon="11.5572663"><ele>110.0</ele><time>2026-04-04T09:25:21.569Z</time></trkpt><trkpt lat="45.6702499" lon="11.5572475"><ele>110.0</ele><time>2026-04-04T09:25:23.575Z</time></trkpt><trkpt lat="45.6703231" lon="11.5573734"><ele>108.71428571428571</ele><time>2026-04-04T09:25:25.57Z</time></trkpt><trkpt lat="45.6703579" lon="11.5574624"><ele>107.42857142857143</ele><time>2026-04-04T09:25:26.57Z</time></trkpt><trkpt lat="45.6703925" lon="11.5575518"><ele>106.14285714285714</ele><time>2026-04-04T09:25:27.57Z</time></trkpt><trkpt lat="45.670417" lon="11.5576495"><ele>104.85714285714286</ele><time>2026-04-04T09:25:28.572Z</time></trkpt><trkpt lat="45.6704329" lon="11.5577571"><ele>103.57142857142857</ele><time>2026-04-04T09:25:29.573Z</time></trkpt><trkpt lat="45.6704352" lon="11.5578642"><ele>102.28571428571428</ele><time>2026-04-04T09:25:30.571Z</time></trkpt><trkpt lat="45.670437" lon="11.5579813"><ele>101.0</ele><time>2026-04-04T09:25:31.573Z</time></trkpt><trkpt lat="45.6704356" lon="11.5581072"><ele>99.42857142857143</ele><time>2026-04-04T09:25:32.572Z</time></trkpt><trkpt lat="45.6704339" lon="11.5582231"><ele>97.85714285714286</ele><time>2026-04-04T09:25:33.572Z</time></trkpt><trkpt lat="45.6704326" lon="11.5583247"><ele>96.28571428571428</ele><time>2026-04-04T09:25:34.573Z</time></trkpt><trkpt lat="45.6704261" lon="11.5584229"><ele>94.71428571428572</ele><time>2026-04-04T09:25:35.573Z</time></trkpt><trkpt lat="45.6704189" lon="11.558527"><ele>93.14285714285715</ele><time>2026-04-04T09:25:36.571Z</time></trkpt><trkpt lat="45.6704157" lon="11.5586296"><ele>91.57142857142857</ele><time>2026-04-04T09:25:37.571Z</time></trkpt><trkpt lat="45.6704215" lon="11.55873"><ele>90.0</ele><time>2026-04-04T09:25:38.572Z</time></trkpt><trkpt lat="45.6704364" lon="11.5588179"><ele>89.5</ele><time>2026-04-04T09:25:39.569Z</time></trkpt><trkpt lat="45.6704596" lon="11.5589816"><ele>89.0</ele><time>2026-04-04T09:25:41.57Z</time></trkpt><trkpt lat="45.6704628" lon="11.5590801"><ele>88.5</ele><time>2026-04-04T09:25:42.572Z</time></trkpt><trkpt lat="45.670455" lon="11.5591941"><ele>88.0</ele><time>2026-04-04T09:25:43.574Z</time></trkpt><trkpt lat="45.6704451" lon="11.5593204"><ele>87.5</ele><time>2026-04-04T09:25:44.571Z</time></trkpt><trkpt lat="45.6704329" lon="11.5594416"><ele>87.0</ele><time>2026-04-04T09:25:45.572Z</time></trkpt><trkpt lat="45.6704158" lon="11.5595329"><ele>86.8</ele><time>2026-04-04T09:25:46.572Z</time></trkpt><trkpt lat="45.6703876" lon="11.5596183"><ele>86.6</ele><time>2026-04-04T09:25:48.571Z</time></trkpt><trkpt lat="45.6703239" lon="11.5596957"><ele>86.39999999999999</ele><time>2026-04-04T09:25:50.573Z</time></trkpt><trkpt lat="45.6702429" lon="11.5597715"><ele>86.19999999999999</ele><time>2026-04-04T09:25:52.574Z</time></trkpt><trkpt lat="45.6701476" lon="11.5598435"><ele>86.0</ele><time>2026-04-04T09:25:54.571Z</time></trkpt><trkpt lat="45.6700519" lon="11.5599322"><ele>86.0</ele><time>2026-04-04T09:25:56.572Z</time></trkpt><trkpt lat="45.6699709" lon="11.5600511"><ele>86.0</ele><time>2026-04-04T09:25:58.571Z</time></trkpt><trkpt lat="45.6699034" lon="11.5601895"><ele>86.0</ele><time>2026-04-04T09:26:00.573Z</time></trkpt><trkpt lat="45.6698526" lon="11.5603496"><ele>86.0</ele><time>2026-04-04T09:26:02.572Z</time></trkpt><trkpt lat="45.6697937" lon="11.5604567"><ele>86.0</ele><time>2026-04-04T09:26:04.575Z</time></trkpt><trkpt lat="45.6698048" lon="11.5603512"><ele>86.0</ele><time>2026-04-04T09:26:13.572Z</time></trkpt><trkpt lat="45.6698137" lon="11.5602375"><ele>86.0</ele><time>2026-04-04T09:26:16.573Z</time></trkpt><trkpt lat="45.6697704" lon="11.5601647"><ele>86.0</ele><time>2026-04-04T09:26:19.57Z</time></trkpt><trkpt lat="45.669694" lon="11.5601576"><ele>86.0</ele><time>2026-04-04T09:26:22.564Z</time></trkpt><trkpt lat="45.6696153" lon="11.5601383"><ele>86.0</ele><time>2026-04-04T09:26:25.561Z</time></trkpt><trkpt lat="45.6695406" lon="11.5601159"><ele>86.0</ele><time>2026-04-04T09:26:28.573Z</time></trkpt><trkpt lat="45.6694478" lon="11.5600832"><ele>86.0</ele><time>2026-04-04T09:26:31.569Z</time></trkpt><trkpt lat="45.6693762" lon="11.5600683"><ele>86.0</ele><time>2026-04-04T09:26:33.572Z</time></trkpt><trkpt lat="45.669291" lon="11.5600514"><ele>86.0</ele><time>2026-04-04T09:26:35.57Z</time></trkpt><trkpt lat="45.6692171" lon="11.5600208"><ele>86.0</ele><time>2026-04-04T09:26:37.57Z</time></trkpt><trkpt lat="45.6691553" lon="11.5599966"><ele>86.0</ele><time>2026-04-04T09:26:39.57Z</time></trkpt><trkpt lat="45.6690716" lon="11.5599606"><ele>86.00000000000001</ele><time>2026-04-04T09:26:42.57Z</time></trkpt><trkpt lat="45.6690085" lon="11.5599405"><ele>86.0</ele><time>2026-04-04T09:26:44.572Z</time></trkpt><trkpt lat="45.6689378" lon="11.5599212"><ele>86.0</ele><time>2026-04-04T09:26:46.571Z</time></trkpt><trkpt lat="45.668864" lon="11.559898"><ele>86.0</ele><time>2026-04-04T09:26:48.57Z</time></trkpt><trkpt lat="45.6687697" lon="11.5598962"><ele>86.0</ele><time>2026-04-04T09:26:51.572Z</time></trkpt><trkpt lat="45.6687057" lon="11.5599032"><ele>86.00000000000001</ele><time>2026-04-04T09:26:53.575Z</time></trkpt><trkpt lat="45.6686374" lon="11.5598987"><ele>86.0</ele><time>2026-04-04T09:26:55.572Z</time></trkpt><trkpt lat="45.6685669" lon="11.5599145"><ele>85.85714285714286</ele><time>2026-04-04T09:26:57.571Z</time></trkpt><trkpt lat="45.6685045" lon="11.5599462"><ele>85.71428571428572</ele><time>2026-04-04T09:26:59.572Z</time></trkpt><trkpt lat="45.6684255" lon="11.559978"><ele>85.57142857142858</ele><time>2026-04-04T09:27:01.569Z</time></trkpt><trkpt lat="45.6683554" lon="11.5600064"><ele>85.42857142857143</ele><time>2026-04-04T09:27:03.572Z</time></trkpt><trkpt lat="45.6682884" lon="11.5600445"><ele>85.28571428571428</ele><time>2026-04-04T09:27:05.572Z</time></trkpt><trkpt lat="45.6682194" lon="11.560078"><ele>85.14285714285715</ele><time>2026-04-04T09:27:07.572Z</time></trkpt><trkpt lat="45.6681496" lon="11.560109"><ele>85.0</ele><time>2026-04-04T09:27:09.572Z</time></trkpt><trkpt lat="45.6680763" lon="11.5601339"><ele>85.0</ele><time>2026-04-04T09:27:11.571Z</time></trkpt><trkpt lat="45.6680111" lon="11.560168"><ele>85.0</ele><time>2026-04-04T09:27:13.573Z</time></trkpt><trkpt lat="45.6679454" lon="11.5601997"><ele>85.0</ele><time>2026-04-04T09:27:15.571Z</time></trkpt><trkpt lat="45.6678738" lon="11.560253"><ele>85.0</ele><time>2026-04-04T09:27:17.573Z</time></trkpt><trkpt lat="45.6678" lon="11.560309"><ele>85.0</ele><time>2026-04-04T09:27:19.572Z</time></trkpt><trkpt lat="45.6677165" lon="11.5603429"><ele>85.0</ele><time>2026-04-04T09:27:21.573Z</time></trkpt><trkpt lat="45.6676107" lon="11.5603257"><ele>85.0</ele><time>2026-04-04T09:27:23.577Z</time></trkpt><trkpt lat="45.6675136" lon="11.5602857"><ele>85.0</ele><time>2026-04-04T09:27:25.572Z</time></trkpt><trkpt lat="45.6674268" lon="11.5602205"><ele>85.0</ele><time>2026-04-04T09:27:27.571Z</time></trkpt><trkpt lat="45.6673574" lon="11.5601488"><ele>85.0</ele><time>2026-04-04T09:27:29.571Z</time></trkpt><trkpt lat="45.6672804" lon="11.5601016"><ele>85.0</ele><time>2026-04-04T09:27:31.571Z</time></trkpt><trkpt lat="45.6672109" lon="11.5600593"><ele>85.0</ele><time>2026-04-04T09:27:33.57Z</time></trkpt><trkpt lat="45.6671298" lon="11.5600344"><ele>85.0</ele><time>2026-04-04T09:27:35.568Z</time></trkpt><trkpt lat="45.6670358" lon="11.5600456"><ele>85.0</ele><time>2026-04-04T09:27:37.57Z</time></trkpt><trkpt lat="45.6669409" lon="11.5600667"><ele>85.0</ele><time>2026-04-04T09:27:39.568Z</time></trkpt><trkpt lat="45.666869" lon="11.5600849"><ele>85.0</ele><time>2026-04-04T09:27:41.568Z</time></trkpt><trkpt lat="45.6668047" lon="11.5600927"><ele>85.0</ele><time>2026-04-04T09:27:43.57Z</time></trkpt><trkpt lat="45.6667353" lon="11.5601013"><ele>85.0</ele><time>2026-04-04T09:27:45.568Z</time></trkpt><trkpt lat="45.6666472" lon="11.5600898"><ele>84.83333333333333</ele><time>2026-04-04T09:27:48.569Z</time></trkpt><trkpt lat="45.6665559" lon="11.5601093"><ele>84.66666666666666</ele><time>2026-04-04T09:27:51.57Z</time></trkpt><trkpt lat="45.6664697" lon="11.5601604"><ele>84.5</ele><time>2026-04-04T09:27:54.571Z</time></trkpt><trkpt lat="45.6664108" lon="11.5602318"><ele>84.33333333333333</ele><time>2026-04-04T09:27:56.57Z</time></trkpt><trkpt lat="45.666343" lon="11.5602706"><ele>84.16666666666667</ele><time>2026-04-04T09:27:58.573Z</time></trkpt><trkpt lat="45.6662606" lon="11.560273"><ele>84.0</ele><time>2026-04-04T09:28:00.571Z</time></trkpt><trkpt lat="45.6661594" lon="11.5602665"><ele>84.16666666666667</ele><time>2026-04-04T09:28:02.569Z</time></trkpt><trkpt lat="45.6660626" lon="11.5602658"><ele>84.33333333333333</ele><time>2026-04-04T09:28:04.57Z</time></trkpt><trkpt lat="45.6659817" lon="11.560286"><ele>84.5</ele><time>2026-04-04T09:28:06.57Z</time></trkpt><trkpt lat="45.6658994" lon="11.5603062"><ele>84.66666666666666</ele><time>2026-04-04T09:28:08.569Z</time></trkpt><trkpt lat="45.6658094" lon="11.5602708"><ele>84.83333333333333</ele><time>2026-04-04T09:28:10.571Z</time></trkpt><trkpt lat="45.6657263" lon="11.5602244"><ele>85.0</ele><time>2026-04-04T09:28:12.571Z</time></trkpt><trkpt lat="45.6656482" lon="11.5602037"><ele>85.0</ele><time>2026-04-04T09:28:14.569Z</time></trkpt><trkpt lat="45.6655723" lon="11.560193"><ele>85.0</ele><time>2026-04-04T09:28:16.57Z</time></trkpt><trkpt lat="45.6654985" lon="11.5601857"><ele>85.0</ele><time>2026-04-04T09:28:18.573Z</time></trkpt><trkpt lat="45.6654232" lon="11.5601766"><ele>85.0</ele><time>2026-04-04T09:28:20.571Z</time></trkpt><trkpt lat="45.6653528" lon="11.5601596"><ele>85.0</ele><time>2026-04-04T09:28:22.572Z</time></trkpt><trkpt lat="45.6652921" lon="11.5601962"><ele>85.0</ele><time>2026-04-04T09:28:24.569Z</time></trkpt><trkpt lat="45.6652664" lon="11.5602857"><ele>85.0</ele><time>2026-04-04T09:28:26.57Z</time></trkpt><trkpt lat="45.6651988" lon="11.5603183"><ele>84.83333333333333</ele><time>2026-04-04T09:28:28.571Z</time></trkpt><trkpt lat="45.6651079" lon="11.5603122"><ele>84.66666666666666</ele><time>2026-04-04T09:28:30.57Z</time></trkpt><trkpt lat="45.6650355" lon="11.5603187"><ele>84.5</ele><time>2026-04-04T09:28:32.572Z</time></trkpt><trkpt lat="45.6649625" lon="11.5603346"><ele>84.33333333333333</ele><time>2026-04-04T09:28:34.568Z</time></trkpt><trkpt lat="45.664886" lon="11.5603519"><ele>84.16666666666667</ele><time>2026-04-04T09:28:36.573Z</time></trkpt><trkpt lat="45.6648082" lon="11.5603661"><ele>84.0</ele><time>2026-04-04T09:28:38.57Z</time></trkpt><trkpt lat="45.6647379" lon="11.5603827"><ele>84.0</ele><time>2026-04-04T09:28:40.572Z</time></trkpt><trkpt lat="45.6646582" lon="11.5604105"><ele>84.0</ele><time>2026-04-04T09:28:42.572Z</time></trkpt><trkpt lat="45.6645706" lon="11.5604236"><ele>84.0</ele><time>2026-04-04T09:28:44.571Z</time></trkpt><trkpt lat="45.6644842" lon="11.5604395"><ele>84.0</ele><time>2026-04-04T09:28:46.572Z</time></trkpt><trkpt lat="45.6644051" lon="11.5604484"><ele>84.0</ele><time>2026-04-04T09:28:48.571Z</time></trkpt><trkpt lat="45.6643228" lon="11.5604497"><ele>84.0</ele><time>2026-04-04T09:28:50.573Z</time></trkpt><trkpt lat="45.6642474" lon="11.5604548"><ele>84.0</ele><time>2026-04-04T09:28:52.57Z</time></trkpt><trkpt lat="45.6641815" lon="11.5604428"><ele>84.0</ele><time>2026-04-04T09:28:54.57Z</time></trkpt><trkpt lat="45.6641133" lon="11.560449"><ele>84.0</ele><time>2026-04-04T09:28:56.571Z</time></trkpt><trkpt lat="45.6640458" lon="11.5604399"><ele>84.0</ele><time>2026-04-04T09:28:58.571Z</time></trkpt><trkpt lat="45.6639788" lon="11.5604383"><ele>84.0</ele><time>2026-04-04T09:29:00.569Z</time></trkpt><trkpt lat="45.6639134" lon="11.5604462"><ele>84.0</ele><time>2026-04-04T09:29:02.569Z</time></trkpt><trkpt lat="45.6638331" lon="11.5603967"><ele>84.0</ele><time>2026-04-04T09:29:05.57Z</time></trkpt><trkpt lat="45.663809" lon="11.560311"><ele>84.14285714285714</ele><time>2026-04-04T09:29:07.571Z</time></trkpt><trkpt lat="45.6637929" lon="11.5602139"><ele>84.28571428571428</ele><time>2026-04-04T09:29:09.57Z</time></trkpt><trkpt lat="45.6637739" lon="11.5601181"><ele>84.42857142857143</ele><time>2026-04-04T09:29:11.571Z</time></trkpt><trkpt lat="45.663742" lon="11.5600244"><ele>84.57142857142857</ele><time>2026-04-04T09:29:13.571Z</time></trkpt><trkpt lat="45.663689" lon="11.5599628"><ele>84.71428571428571</ele><time>2026-04-04T09:29:15.569Z</time></trkpt><trkpt lat="45.6636195" lon="11.5599379"><ele>84.85714285714286</ele><time>2026-04-04T09:29:17.568Z</time></trkpt><trkpt lat="45.6635485" lon="11.5599242"><ele>85.0</ele><time>2026-04-04T09:29:19.569Z</time></trkpt><trkpt lat="45.6634709" lon="11.5599159"><ele>84.66666666666666</ele><time>2026-04-04T09:29:21.571Z</time></trkpt><trkpt lat="45.6633881" lon="11.5598894"><ele>84.33333333333333</ele><time>2026-04-04T09:29:23.571Z</time></trkpt><trkpt lat="45.6633131" lon="11.5598606"><ele>84.0</ele><time>2026-04-04T09:29:25.57Z</time></trkpt><trkpt lat="45.663231" lon="11.5598154"><ele>83.66666666666667</ele><time>2026-04-04T09:29:27.569Z</time></trkpt><trkpt lat="45.6631468" lon="11.559782"><ele>83.33333333333334</ele><time>2026-04-04T09:29:29.57Z</time></trkpt><trkpt lat="45.6630609" lon="11.5597542"><ele>83.0</ele><time>2026-04-04T09:29:31.569Z</time></trkpt><trkpt lat="45.6629674" lon="11.5597197"><ele>83.0</ele><time>2026-04-04T09:29:33.574Z</time></trkpt><trkpt lat="45.6628698" lon="11.5596969"><ele>83.0</ele><time>2026-04-04T09:29:35.572Z</time></trkpt><trkpt lat="45.6627698" lon="11.5596752"><ele>83.0</ele><time>2026-04-04T09:29:37.573Z</time></trkpt><trkpt lat="45.6626723" lon="11.5596378"><ele>83.0</ele><time>2026-04-04T09:29:39.571Z</time></trkpt><trkpt lat="45.6625739" lon="11.559604"><ele>83.0</ele><time>2026-04-04T09:29:41.57Z</time></trkpt><trkpt lat="45.6624736" lon="11.5595668"><ele>82.80000000000001</ele><time>2026-04-04T09:29:43.572Z</time></trkpt><trkpt lat="45.6623748" lon="11.5595362"><ele>82.6</ele><time>2026-04-04T09:29:45.571Z</time></trkpt><trkpt lat="45.6622778" lon="11.5595119"><ele>82.4</ele><time>2026-04-04T09:29:47.571Z</time></trkpt><trkpt lat="45.6621765" lon="11.5594764"><ele>82.19999999999999</ele><time>2026-04-04T09:29:49.573Z</time></trkpt><trkpt lat="45.6620691" lon="11.5594437"><ele>82.0</ele><time>2026-04-04T09:29:51.572Z</time></trkpt><trkpt lat="45.6619713" lon="11.5594116"><ele>81.19999999999999</ele><time>2026-04-04T09:29:53.565Z</time></trkpt><trkpt lat="45.6618714" lon="11.5593752"><ele>80.39999999999999</ele><time>2026-04-04T09:29:55.574Z</time></trkpt><trkpt lat="45.6617765" lon="11.5593377"><ele>79.6</ele><time>2026-04-04T09:29:57.574Z</time></trkpt><trkpt lat="45.6616846" lon="11.559294"><ele>78.8</ele><time>2026-04-04T09:29:59.573Z</time></trkpt><trkpt lat="45.6615962" lon="11.5592488"><ele>78.0</ele><time>2026-04-04T09:30:01.561Z</time></trkpt><trkpt lat="45.6615069" lon="11.5591972"><ele>78.0</ele><time>2026-04-04T09:30:03.568Z</time></trkpt><trkpt lat="45.661417" lon="11.5591352"><ele>78.0</ele><time>2026-04-04T09:30:05.57Z</time></trkpt><trkpt lat="45.6613239" lon="11.5590688"><ele>78.0</ele><time>2026-04-04T09:30:07.567Z</time></trkpt><trkpt lat="45.6612307" lon="11.5590076"><ele>78.0</ele><time>2026-04-04T09:30:09.567Z</time></trkpt><trkpt lat="45.6611358" lon="11.5589332"><ele>78.0</ele><time>2026-04-04T09:30:11.562Z</time></trkpt><trkpt lat="45.6610425" lon="11.5588671"><ele>78.0</ele><time>2026-04-04T09:30:13.572Z</time></trkpt><trkpt lat="45.6609497" lon="11.5587811"><ele>78.0</ele><time>2026-04-04T09:30:15.57Z</time></trkpt><trkpt lat="45.6608571" lon="11.558718"><ele>78.0</ele><time>2026-04-04T09:30:17.575Z</time></trkpt><trkpt lat="45.6607614" lon="11.5586529"><ele>78.0</ele><time>2026-04-04T09:30:19.573Z</time></trkpt><trkpt lat="45.660663" lon="11.5585808"><ele>78.0</ele><time>2026-04-04T09:30:21.573Z</time></trkpt><trkpt lat="45.6605662" lon="11.5585001"><ele>78.0</ele><time>2026-04-04T09:30:23.569Z</time></trkpt><trkpt lat="45.6604746" lon="11.5584331"><ele>78.0</ele><time>2026-04-04T09:30:25.571Z</time></trkpt><trkpt lat="45.6603787" lon="11.5583606"><ele>78.0</ele><time>2026-04-04T09:30:27.572Z</time></trkpt><trkpt lat="45.6602816" lon="11.5582929"><ele>78.0</ele><time>2026-04-04T09:30:29.572Z</time></trkpt><trkpt lat="45.6601809" lon="11.5582735"><ele>78.0</ele><time>2026-04-04T09:30:31.57Z</time></trkpt><trkpt lat="45.6600834" lon="11.5582419"><ele>77.83333333333333</ele><time>2026-04-04T09:30:33.572Z</time></trkpt><trkpt lat="45.6600203" lon="11.5581503"><ele>77.66666666666667</ele><time>2026-04-04T09:30:35.567Z</time></trkpt><trkpt lat="45.6600362" lon="11.5580205"><ele>77.5</ele><time>2026-04-04T09:30:37.571Z</time></trkpt><trkpt lat="45.6600886" lon="11.5579154"><ele>77.33333333333334</ele><time>2026-04-04T09:30:39.572Z</time></trkpt><trkpt lat="45.6601249" lon="11.5578144"><ele>77.16666666666667</ele><time>2026-04-04T09:30:41.574Z</time></trkpt><trkpt lat="45.6601606" lon="11.5577271"><ele>77.0</ele><time>2026-04-04T09:30:43.571Z</time></trkpt><trkpt lat="45.6601966" lon="11.5576446"><ele>76.85714285714286</ele><time>2026-04-04T09:30:45.576Z</time></trkpt><trkpt lat="45.6602406" lon="11.5575681"><ele>76.71428571428572</ele><time>2026-04-04T09:30:47.57Z</time></trkpt><trkpt lat="45.6602771" lon="11.5574906"><ele>76.57142857142857</ele><time>2026-04-04T09:30:49.573Z</time></trkpt><trkpt lat="45.6603202" lon="11.557424"><ele>76.42857142857143</ele><time>2026-04-04T09:30:51.572Z</time></trkpt><trkpt lat="45.6603679" lon="11.557332"><ele>76.28571428571429</ele><time>2026-04-04T09:30:54.567Z</time></trkpt><trkpt lat="45.6603965" lon="11.5572505"><ele>76.14285714285714</ele><time>2026-04-04T09:30:57.574Z</time></trkpt><trkpt lat="45.6604321" lon="11.5571505"><ele>76.0</ele><time>2026-04-04T09:31:00.571Z</time></trkpt><trkpt lat="45.6604602" lon="11.5570693"><ele>77.66666666666666</ele><time>2026-04-04T09:31:03.571Z</time></trkpt><trkpt lat="45.6604867" lon="11.5569679"><ele>79.33333333333333</ele><time>2026-04-04T09:31:07.567Z</time></trkpt><trkpt lat="45.6605171" lon="11.5568678"><ele>81.0</ele><time>2026-04-04T09:31:11.568Z</time></trkpt><trkpt lat="45.6605432" lon="11.5567742"><ele>82.66666666666667</ele><time>2026-04-04T09:31:15.567Z</time></trkpt><trkpt lat="45.6605872" lon="11.5566729"><ele>84.33333333333334</ele><time>2026-04-04T09:31:19.572Z</time></trkpt><trkpt lat="45.6606251" lon="11.5565773"><ele>86.0</ele><time>2026-04-04T09:31:23.572Z</time></trkpt><trkpt lat="45.6606673" lon="11.5564845"><ele>86.00000000000001</ele><time>2026-04-04T09:31:28.57Z</time></trkpt><trkpt lat="45.6607158" lon="11.5564196"><ele>86.0</ele><time>2026-04-04T09:31:32.565Z</time></trkpt><trkpt lat="45.6607663" lon="11.5563444"><ele>86.0</ele><time>2026-04-04T09:31:37.567Z</time></trkpt><trkpt lat="45.6608181" lon="11.5562679"><ele>86.0</ele><time>2026-04-04T09:31:42.571Z</time></trkpt><trkpt lat="45.6608736" lon="11.556203"><ele>86.0</ele><time>2026-04-04T09:31:46.571Z</time></trkpt><trkpt lat="45.6609257" lon="11.556134"><ele>86.00000000000001</ele><time>2026-04-04T09:31:50.572Z</time></trkpt><trkpt lat="45.6609824" lon="11.5560512"><ele>86.0</ele><time>2026-04-04T09:31:54.567Z</time></trkpt><trkpt lat="45.6610345" lon="11.5559734"><ele>86.85714285714286</ele><time>2026-04-04T09:31:58.571Z</time></trkpt><trkpt lat="45.6610888" lon="11.5558877"><ele>87.71428571428572</ele><time>2026-04-04T09:32:02.57Z</time></trkpt><trkpt lat="45.6611199" lon="11.555798"><ele>88.57142857142858</ele><time>2026-04-04T09:32:06.572Z</time></trkpt><trkpt lat="45.6611453" lon="11.5556922"><ele>89.42857142857143</ele><time>2026-04-04T09:32:10.568Z</time></trkpt><trkpt lat="45.6611713" lon="11.5555967"><ele>90.28571428571428</ele><time>2026-04-04T09:32:14.571Z</time></trkpt><trkpt lat="45.6611889" lon="11.5555095"><ele>91.14285714285715</ele><time>2026-04-04T09:32:18.571Z</time></trkpt><trkpt lat="45.6612073" lon="11.5554149"><ele>92.0</ele><time>2026-04-04T09:32:22.572Z</time></trkpt><trkpt lat="45.6612159" lon="11.5553107"><ele>94.0</ele><time>2026-04-04T09:32:26.572Z</time></trkpt><trkpt lat="45.6612246" lon="11.5552016"><ele>96.0</ele><time>2026-04-04T09:32:30.57Z</time></trkpt><trkpt lat="45.6612365" lon="11.5550979"><ele>98.0</ele><time>2026-04-04T09:32:34.565Z</time></trkpt><trkpt lat="45.6612561" lon="11.5549818"><ele>100.0</ele><time>2026-04-04T09:32:38.57Z</time></trkpt><trkpt lat="45.6612778" lon="11.5548783"><ele>101.99999999999999</ele><time>2026-04-04T09:32:42.569Z</time></trkpt><trkpt lat="45.6612639" lon="11.5547664"><ele>104.0</ele><time>2026-04-04T09:32:46.572Z</time></trkpt><trkpt lat="45.6612432" lon="11.5546756"><ele>103.99999999999999</ele><time>2026-04-04T09:32:49.57Z</time></trkpt><trkpt lat="45.6612231" lon="11.5545674"><ele>104.0</ele><time>2026-04-04T09:32:53.576Z</time></trkpt><trkpt lat="45.661201" lon="11.5544511"><ele>104.0</ele><time>2026-04-04T09:32:57.569Z</time></trkpt><trkpt lat="45.6611728" lon="11.5543462"><ele>104.0</ele><time>2026-04-04T09:33:01.568Z</time></trkpt><trkpt lat="45.6611462" lon="11.554247"><ele>103.99999999999999</ele><time>2026-04-04T09:33:05.569Z</time></trkpt><trkpt lat="45.6611311" lon="11.5541416"><ele>104.0</ele><time>2026-04-04T09:33:09.57Z</time></trkpt><trkpt lat="45.6611085" lon="11.5540435"><ele>102.33333333333333</ele><time>2026-04-04T09:33:13.574Z</time></trkpt><trkpt lat="45.6610878" lon="11.5539307"><ele>100.66666666666666</ele><time>2026-04-04T09:33:17.573Z</time></trkpt><trkpt lat="45.6610654" lon="11.5538348"><ele>99.0</ele><time>2026-04-04T09:33:21.574Z</time></trkpt><trkpt lat="45.6609994" lon="11.553798"><ele>97.33333333333333</ele><time>2026-04-04T09:33:25.57Z</time></trkpt><trkpt lat="45.6609217" lon="11.5538462"><ele>95.66666666666666</ele><time>2026-04-04T09:33:28.574Z</time></trkpt><trkpt lat="45.6608264" lon="11.5538841"><ele>94.0</ele><time>2026-04-04T09:33:30.568Z</time></trkpt><trkpt lat="45.6607645" lon="11.5539037"><ele>94.0</ele><time>2026-04-04T09:33:31.569Z</time></trkpt><trkpt lat="45.6606964" lon="11.5539245"><ele>94.0</ele><time>2026-04-04T09:33:32.567Z</time></trkpt><trkpt lat="45.6606243" lon="11.5539473"><ele>94.0</ele><time>2026-04-04T09:33:33.572Z</time></trkpt><trkpt lat="45.6605491" lon="11.5539719"><ele>94.0</ele><time>2026-04-04T09:33:34.563Z</time></trkpt><trkpt lat="45.6604729" lon="11.5539967"><ele>94.0</ele><time>2026-04-04T09:33:35.564Z</time></trkpt><trkpt lat="45.6603958" lon="11.5540149"><ele>94.0</ele><time>2026-04-04T09:33:36.564Z</time></trkpt><trkpt lat="45.6603216" lon="11.5540324"><ele>93.0</ele><time>2026-04-04T09:33:37.571Z</time></trkpt><trkpt lat="45.6602474" lon="11.5540527"><ele>92.0</ele><time>2026-04-04T09:33:38.57Z</time></trkpt><trkpt lat="45.6601737" lon="11.554074"><ele>91.0</ele><time>2026-04-04T09:33:39.57Z</time></trkpt><trkpt lat="45.6600991" lon="11.554094"><ele>90.0</ele><time>2026-04-04T09:33:40.565Z</time></trkpt><trkpt lat="45.6600307" lon="11.5541152"><ele>89.0</ele><time>2026-04-04T09:33:41.566Z</time></trkpt><trkpt lat="45.6599395" lon="11.554147"><ele>88.0</ele><time>2026-04-04T09:33:43.568Z</time></trkpt><trkpt lat="45.6598711" lon="11.554157"><ele>88.0</ele><time>2026-04-04T09:33:50.576Z</time></trkpt><trkpt lat="45.6599035" lon="11.5540604"><ele>88.0</ele><time>2026-04-04T09:34:27.572Z</time></trkpt><trkpt lat="45.6598956" lon="11.5539581"><ele>88.0</ele><time>2026-04-04T09:34:31.572Z</time></trkpt><trkpt lat="45.6598862" lon="11.5538509"><ele>88.0</ele><time>2026-04-04T09:34:35.572Z</time></trkpt><trkpt lat="45.659872" lon="11.5537618"><ele>88.0</ele><time>2026-04-04T09:34:38.573Z</time></trkpt><trkpt lat="45.6598609" lon="11.5536489"><ele>88.0</ele><time>2026-04-04T09:34:41.572Z</time></trkpt><trkpt lat="45.6598614" lon="11.5535469"><ele>88.0</ele><time>2026-04-04T09:34:43.574Z</time></trkpt><trkpt lat="45.6598629" lon="11.5534418"><ele>88.2</ele><time>2026-04-04T09:34:46.573Z</time></trkpt><trkpt lat="45.6597809" lon="11.5534061"><ele>88.4</ele><time>2026-04-04T09:34:51.572Z</time></trkpt><trkpt lat="45.6597012" lon="11.5534365"><ele>88.60000000000001</ele><time>2026-04-04T09:34:53.575Z</time></trkpt><trkpt lat="45.6596066" lon="11.5534759"><ele>88.80000000000001</ele><time>2026-04-04T09:34:55.572Z</time></trkpt><trkpt lat="45.6595012" lon="11.553509"><ele>89.0</ele><time>2026-04-04T09:34:57.577Z</time></trkpt><trkpt lat="45.6593947" lon="11.5535484"><ele>86.4</ele><time>2026-04-04T09:34:59.572Z</time></trkpt><trkpt lat="45.6592914" lon="11.5535771"><ele>83.80000000000001</ele><time>2026-04-04T09:35:01.572Z</time></trkpt><trkpt lat="45.6591867" lon="11.5535997"><ele>81.19999999999999</ele><time>2026-04-04T09:35:03.563Z</time></trkpt><trkpt lat="45.6590832" lon="11.5536308"><ele>78.6</ele><time>2026-04-04T09:35:05.573Z</time></trkpt><trkpt lat="45.6589757" lon="11.5536645"><ele>76.0</ele><time>2026-04-04T09:35:07.572Z</time></trkpt><trkpt lat="45.6588562" lon="11.5536992"><ele>75.83333333333333</ele><time>2026-04-04T09:35:09.572Z</time></trkpt><trkpt lat="45.6587334" lon="11.5537346"><ele>75.66666666666666</ele><time>2026-04-04T09:35:11.565Z</time></trkpt><trkpt lat="45.6586697" lon="11.5537567"><ele>75.5</ele><time>2026-04-04T09:35:12.572Z</time></trkpt><trkpt lat="45.6586072" lon="11.5537732"><ele>75.33333333333333</ele><time>2026-04-04T09:35:13.58Z</time></trkpt><trkpt lat="45.6585442" lon="11.5537848"><ele>75.16666666666667</ele><time>2026-04-04T09:35:14.573Z</time></trkpt><trkpt lat="45.6584781" lon="11.5537999"><ele>75.0</ele><time>2026-04-04T09:35:15.574Z</time></trkpt><trkpt lat="45.6584116" lon="11.5538192"><ele>74.0</ele><time>2026-04-04T09:35:16.572Z</time></trkpt><trkpt lat="45.6583458" lon="11.553842"><ele>73.0</ele><time>2026-04-04T09:35:17.573Z</time></trkpt><trkpt lat="45.6582845" lon="11.5538684"><ele>72.0</ele><time>2026-04-04T09:35:18.573Z</time></trkpt><trkpt lat="45.6581717" lon="11.5539113"><ele>71.0</ele><time>2026-04-04T09:35:20.573Z</time></trkpt><trkpt lat="45.6580603" lon="11.5539475"><ele>70.0</ele><time>2026-04-04T09:35:22.573Z</time></trkpt><trkpt lat="45.6579578" lon="11.5539755"><ele>70.0</ele><time>2026-04-04T09:35:24.573Z</time></trkpt><trkpt lat="45.6578657" lon="11.5540086"><ele>70.0</ele><time>2026-04-04T09:35:26.573Z</time></trkpt><trkpt lat="45.6577762" lon="11.5540405"><ele>70.0</ele><time>2026-04-04T09:35:28.573Z</time></trkpt><trkpt lat="45.65769" lon="11.5540685"><ele>70.0</ele><time>2026-04-04T09:35:30.575Z</time></trkpt><trkpt lat="45.6576102" lon="11.5540985"><ele>70.0</ele><time>2026-04-04T09:35:32.57Z</time></trkpt><trkpt lat="45.6575461" lon="11.5540953"><ele>70.0</ele><time>2026-04-04T09:35:35.572Z</time></trkpt><trkpt lat="45.657468" lon="11.5540872"><ele>69.83333333333333</ele><time>2026-04-04T09:35:40.573Z</time></trkpt><trkpt lat="45.6573806" lon="11.5540954"><ele>69.66666666666666</ele><time>2026-04-04T09:35:43.575Z</time></trkpt><trkpt lat="45.657317" lon="11.5541092"><ele>69.5</ele><time>2026-04-04T09:35:45.572Z</time></trkpt><trkpt lat="45.6572522" lon="11.5541231"><ele>69.33333333333333</ele><time>2026-04-04T09:35:47.571Z</time></trkpt><trkpt lat="45.6571748" lon="11.5541412"><ele>69.16666666666667</ele><time>2026-04-04T09:35:49.573Z</time></trkpt><trkpt lat="45.6570896" lon="11.5541672"><ele>69.0</ele><time>2026-04-04T09:35:51.571Z</time></trkpt><trkpt lat="45.6570028" lon="11.5541842"><ele>69.0</ele><time>2026-04-04T09:35:53.573Z</time></trkpt><trkpt lat="45.6569151" lon="11.5542048"><ele>69.0</ele><time>2026-04-04T09:35:55.571Z</time></trkpt><trkpt lat="45.6568436" lon="11.5542279"><ele>69.0</ele><time>2026-04-04T09:35:57.572Z</time></trkpt><trkpt lat="45.6567779" lon="11.5542428"><ele>69.0</ele><time>2026-04-04T09:35:59.571Z</time></trkpt><trkpt lat="45.6566811" lon="11.5542688"><ele>69.0</ele><time>2026-04-04T09:36:02.569Z</time></trkpt><trkpt lat="45.6566046" lon="11.554291"><ele>69.0</ele><time>2026-04-04T09:36:04.571Z</time></trkpt><trkpt lat="45.6565242" lon="11.5543105"><ele>69.0</ele><time>2026-04-04T09:36:06.573Z</time></trkpt><trkpt lat="45.6564509" lon="11.5543397"><ele>69.0</ele><time>2026-04-04T09:36:08.572Z</time></trkpt><trkpt lat="45.6563735" lon="11.5543764"><ele>69.0</ele><time>2026-04-04T09:36:10.572Z</time></trkpt><trkpt lat="45.6563064" lon="11.5544223"><ele>69.0</ele><time>2026-04-04T09:36:12.571Z</time></trkpt><trkpt lat="45.6562507" lon="11.5544945"><ele>69.0</ele><time>2026-04-04T09:36:14.571Z</time></trkpt><trkpt lat="45.6561923" lon="11.5545669"><ele>69.0</ele><time>2026-04-04T09:36:16.572Z</time></trkpt><trkpt lat="45.6561366" lon="11.5546425"><ele>68.83333333333333</ele><time>2026-04-04T09:36:18.573Z</time></trkpt><trkpt lat="45.6560827" lon="11.5547161"><ele>68.66666666666667</ele><time>2026-04-04T09:36:20.571Z</time></trkpt><trkpt lat="45.6560193" lon="11.5547858"><ele>68.5</ele><time>2026-04-04T09:36:22.572Z</time></trkpt><trkpt lat="45.6559411" lon="11.55485"><ele>68.33333333333334</ele><time>2026-04-04T09:36:24.572Z</time></trkpt><trkpt lat="45.6558695" lon="11.5549058"><ele>68.16666666666667</ele><time>2026-04-04T09:36:26.573Z</time></trkpt><trkpt lat="45.6558004" lon="11.5549329"><ele>68.0</ele><time>2026-04-04T09:36:28.573Z</time></trkpt><trkpt lat="45.6557266" lon="11.5549459"><ele>68.0</ele><time>2026-04-04T09:36:30.575Z</time></trkpt><trkpt lat="45.6556457" lon="11.5549457"><ele>68.0</ele><time>2026-04-04T09:36:32.573Z</time></trkpt><trkpt lat="45.6555632" lon="11.5549426"><ele>68.0</ele><time>2026-04-04T09:36:34.572Z</time></trkpt><trkpt lat="45.6554835" lon="11.5549485"><ele>68.0</ele><time>2026-04-04T09:36:36.564Z</time></trkpt><trkpt lat="45.6554047" lon="11.5549525"><ele>68.0</ele><time>2026-04-04T09:36:38.572Z</time></trkpt><trkpt lat="45.655324" lon="11.5549471"><ele>68.0</ele><time>2026-04-04T09:36:40.574Z</time></trkpt><trkpt lat="45.6552389" lon="11.5549542"><ele>67.66666666666667</ele><time>2026-04-04T09:36:42.573Z</time></trkpt><trkpt lat="45.6551693" lon="11.5549684"><ele>67.33333333333334</ele><time>2026-04-04T09:36:44.574Z</time></trkpt><trkpt lat="45.6550999" lon="11.5549751"><ele>67.0</ele><time>2026-04-04T09:36:46.572Z</time></trkpt><trkpt lat="45.6550268" lon="11.5549838"><ele>66.66666666666667</ele><time>2026-04-04T09:36:48.572Z</time></trkpt><trkpt lat="45.654954" lon="11.5550032"><ele>66.33333333333333</ele><time>2026-04-04T09:36:50.573Z</time></trkpt><trkpt lat="45.6548748" lon="11.5549966"><ele>66.0</ele><time>2026-04-04T09:36:52.573Z</time></trkpt><trkpt lat="45.654789" lon="11.5550013"><ele>66.0</ele><time>2026-04-04T09:36:54.572Z</time></trkpt><trkpt lat="45.6547003" lon="11.5550167"><ele>66.0</ele><time>2026-04-04T09:36:56.572Z</time></trkpt><trkpt lat="45.6546097" lon="11.5550162"><ele>66.0</ele><time>2026-04-04T09:36:58.574Z</time></trkpt><trkpt lat="45.6545193" lon="11.5550262"><ele>66.0</ele><time>2026-04-04T09:37:00.573Z</time></trkpt><trkpt lat="45.6544218" lon="11.5550219"><ele>66.0</ele><time>2026-04-04T09:37:02.571Z</time></trkpt><trkpt lat="45.6543308" lon="11.5550189"><ele>66.16666666666667</ele><time>2026-04-04T09:37:04.572Z</time></trkpt><trkpt lat="45.6542462" lon="11.5550213"><ele>66.33333333333333</ele><time>2026-04-04T09:37:06.573Z</time></trkpt><trkpt lat="45.6541655" lon="11.5550204"><ele>66.5</ele><time>2026-04-04T09:37:08.573Z</time></trkpt><trkpt lat="45.6540834" lon="11.5550302"><ele>66.66666666666666</ele><time>2026-04-04T09:37:10.571Z</time></trkpt><trkpt lat="45.6539972" lon="11.5550349"><ele>66.83333333333333</ele><time>2026-04-04T09:37:12.572Z</time></trkpt><trkpt lat="45.6539095" lon="11.5550408"><ele>67.0</ele><time>2026-04-04T09:37:14.571Z</time></trkpt><trkpt lat="45.6538217" lon="11.555046"><ele>67.0</ele><time>2026-04-04T09:37:16.572Z</time></trkpt><trkpt lat="45.6537377" lon="11.5550539"><ele>67.0</ele><time>2026-04-04T09:37:18.57Z</time></trkpt><trkpt lat="45.6536588" lon="11.5550637"><ele>67.0</ele><time>2026-04-04T09:37:20.57Z</time></trkpt><trkpt lat="45.653573" lon="11.5550706"><ele>67.0</ele><time>2026-04-04T09:37:22.571Z</time></trkpt><trkpt lat="45.6534856" lon="11.555079"><ele>67.0</ele><time>2026-04-04T09:37:24.572Z</time></trkpt><trkpt lat="45.6534021" lon="11.5550894"><ele>67.0</ele><time>2026-04-04T09:37:26.571Z</time></trkpt><trkpt lat="45.6533184" lon="11.5551013"><ele>67.0</ele><time>2026-04-04T09:37:28.572Z</time></trkpt><trkpt lat="45.6532328" lon="11.5550993"><ele>67.0</ele><time>2026-04-04T09:37:30.573Z</time></trkpt><trkpt lat="45.6531433" lon="11.555089"><ele>67.0</ele><time>2026-04-04T09:37:32.573Z</time></trkpt><trkpt lat="45.653054" lon="11.5550781"><ele>67.0</ele><time>2026-04-04T09:37:34.571Z</time></trkpt><trkpt lat="45.652971" lon="11.5550671"><ele>67.0</ele><time>2026-04-04T09:37:36.573Z</time></trkpt><trkpt lat="45.6528892" lon="11.5550559"><ele>67.0</ele><time>2026-04-04T09:37:38.573Z</time></trkpt><trkpt lat="45.652809" lon="11.5550322"><ele>66.66666666666666</ele><time>2026-04-04T09:37:40.572Z</time></trkpt><trkpt lat="45.6527312" lon="11.5549791"><ele>66.33333333333333</ele><time>2026-04-04T09:37:42.571Z</time></trkpt><trkpt lat="45.6526659" lon="11.5549134"><ele>66.0</ele><time>2026-04-04T09:37:44.57Z</time></trkpt><trkpt lat="45.6526011" lon="11.5548476"><ele>65.66666666666667</ele><time>2026-04-04T09:37:46.574Z</time></trkpt><trkpt lat="45.6525384" lon="11.5547636"><ele>65.33333333333334</ele><time>2026-04-04T09:37:48.574Z</time></trkpt><trkpt lat="45.652473" lon="11.5546939"><ele>65.0</ele><time>2026-04-04T09:37:50.573Z</time></trkpt><trkpt lat="45.6524006" lon="11.5546327"><ele>65.0</ele><time>2026-04-04T09:37:52.575Z</time></trkpt><trkpt lat="45.6523276" lon="11.5545964"><ele>65.0</ele><time>2026-04-04T09:37:54.573Z</time></trkpt><trkpt lat="45.6522546" lon="11.5545515"><ele>65.0</ele><time>2026-04-04T09:37:56.574Z</time></trkpt><trkpt lat="45.6521838" lon="11.5545118"><ele>65.0</ele><time>2026-04-04T09:37:58.573Z</time></trkpt><trkpt lat="45.6521076" lon="11.5544902"><ele>65.0</ele><time>2026-04-04T09:38:00.575Z</time></trkpt><trkpt lat="45.6520288" lon="11.5544892"><ele>65.0</ele><time>2026-04-04T09:38:02.574Z</time></trkpt><trkpt lat="45.6519831" lon="11.5545797"><ele>65.0</ele><time>2026-04-04T09:38:04.573Z</time></trkpt><trkpt lat="45.6519831" lon="11.5547043"><ele>65.0</ele><time>2026-04-04T09:38:06.573Z</time></trkpt><trkpt lat="45.6519846" lon="11.5548196"><ele>65.0</ele><time>2026-04-04T09:38:08.573Z</time></trkpt><trkpt lat="45.651978" lon="11.5549267"><ele>65.0</ele><time>2026-04-04T09:38:10.573Z</time></trkpt><trkpt lat="45.6519666" lon="11.5550367"><ele>65.0</ele><time>2026-04-04T09:38:12.572Z</time></trkpt><trkpt lat="45.6519633" lon="11.5551295"><ele>65.0</ele><time>2026-04-04T09:38:14.572Z</time></trkpt><trkpt lat="45.6519648" lon="11.5552228"><ele>65.00000000000001</ele><time>2026-04-04T09:38:16.574Z</time></trkpt><trkpt lat="45.6519798" lon="11.5553295"><ele>65.0</ele><time>2026-04-04T09:38:19.574Z</time></trkpt><trkpt lat="45.6519956" lon="11.5554209"><ele>65.0</ele><time>2026-04-04T09:38:22.571Z</time></trkpt><trkpt lat="45.6520147" lon="11.5555217"><ele>65.0</ele><time>2026-04-04T09:38:27.573Z</time></trkpt><trkpt lat="45.6519509" lon="11.5555379"><ele>65.0</ele><time>2026-04-04T09:38:33.577Z</time></trkpt><trkpt lat="45.6519142" lon="11.5554446"><ele>65.00000000000001</ele><time>2026-04-04T09:38:36.573Z</time></trkpt><trkpt lat="45.6518898" lon="11.5553391"><ele>65.0</ele><time>2026-04-04T09:38:39.573Z</time></trkpt><trkpt lat="45.6518507" lon="11.5552388"><ele>65.16666666666667</ele><time>2026-04-04T09:38:42.575Z</time></trkpt><trkpt lat="45.651809" lon="11.555136"><ele>65.33333333333334</ele><time>2026-04-04T09:38:45.575Z</time></trkpt><trkpt lat="45.6517695" lon="11.5550395"><ele>65.5</ele><time>2026-04-04T09:38:48.575Z</time></trkpt><trkpt lat="45.6517285" lon="11.5549454"><ele>65.66666666666667</ele><time>2026-04-04T09:38:51.574Z</time></trkpt><trkpt lat="45.6516865" lon="11.554846"><ele>65.83333333333333</ele><time>2026-04-04T09:38:54.573Z</time></trkpt><trkpt lat="45.651645" lon="11.5547468"><ele>66.0</ele><time>2026-04-04T09:38:57.574Z</time></trkpt><trkpt lat="45.6515931" lon="11.5546409"><ele>66.0</ele><time>2026-04-04T09:39:00.574Z</time></trkpt><trkpt lat="45.651538" lon="11.554541"><ele>66.0</ele><time>2026-04-04T09:39:03.58Z</time></trkpt><trkpt lat="45.651482" lon="11.5544518"><ele>66.0</ele><time>2026-04-04T09:39:06.574Z</time></trkpt><trkpt lat="45.6514223" lon="11.5543601"><ele>66.0</ele><time>2026-04-04T09:39:09.573Z</time></trkpt><trkpt lat="45.6513529" lon="11.5542778"><ele>66.0</ele><time>2026-04-04T09:39:12.573Z</time></trkpt><trkpt lat="45.6512795" lon="11.554206"><ele>66.0</ele><time>2026-04-04T09:39:15.576Z</time></trkpt><trkpt lat="45.6512012" lon="11.5541329"><ele>66.0</ele><time>2026-04-04T09:39:18.574Z</time></trkpt><trkpt lat="45.6511447" lon="11.5540876"><ele>66.0</ele><time>2026-04-04T09:39:20.576Z</time></trkpt><trkpt lat="45.6510881" lon="11.5540409"><ele>66.0</ele><time>2026-04-04T09:39:22.574Z</time></trkpt><trkpt lat="45.6510316" lon="11.554"><ele>66.0</ele><time>2026-04-04T09:39:24.574Z</time></trkpt><trkpt lat="45.6509755" lon="11.5539576"><ele>66.0</ele><time>2026-04-04T09:39:26.574Z</time></trkpt><trkpt lat="45.6509119" lon="11.5538961"><ele>66.0</ele><time>2026-04-04T09:39:28.574Z</time></trkpt><trkpt lat="45.6508244" lon="11.5538372"><ele>66.0</ele><time>2026-04-04T09:39:31.574Z</time></trkpt><trkpt lat="45.6507592" lon="11.5537897"><ele>66.0</ele><time>2026-04-04T09:39:33.575Z</time></trkpt><trkpt lat="45.6507005" lon="11.553744"><ele>66.0</ele><time>2026-04-04T09:39:35.574Z</time></trkpt><trkpt lat="45.6506326" lon="11.5536987"><ele>66.0</ele><time>2026-04-04T09:39:37.575Z</time></trkpt><trkpt lat="45.6505687" lon="11.553652"><ele>66.0</ele><time>2026-04-04T09:39:39.574Z</time></trkpt><trkpt lat="45.6505012" lon="11.5536011"><ele>66.0</ele><time>2026-04-04T09:39:41.573Z</time></trkpt><trkpt lat="45.6504319" lon="11.5535487"><ele>66.0</ele><time>2026-04-04T09:39:43.577Z</time></trkpt><trkpt lat="45.6503642" lon="11.5534954"><ele>66.0</ele><time>2026-04-04T09:39:45.573Z</time></trkpt><trkpt lat="45.650306" lon="11.5534572"><ele>66.0</ele><time>2026-04-04T09:39:47.575Z</time></trkpt><trkpt lat="45.6502452" lon="11.5534115"><ele>66.0</ele><time>2026-04-04T09:39:49.574Z</time></trkpt><trkpt lat="45.6501813" lon="11.5533535"><ele>66.0</ele><time>2026-04-04T09:39:51.574Z</time></trkpt><trkpt lat="45.6501141" lon="11.5533067"><ele>66.0</ele><time>2026-04-04T09:39:53.568Z</time></trkpt><trkpt lat="45.6500392" lon="11.553257"><ele>66.0</ele><time>2026-04-04T09:39:55.567Z</time></trkpt><trkpt lat="45.6499582" lon="11.5532114"><ele>66.0</ele><time>2026-04-04T09:39:57.576Z</time></trkpt><trkpt lat="45.649873" lon="11.5531651"><ele>66.0</ele><time>2026-04-04T09:39:59.574Z</time></trkpt><trkpt lat="45.6497848" lon="11.5531313"><ele>66.0</ele><time>2026-04-04T09:40:01.573Z</time></trkpt><trkpt lat="45.6496995" lon="11.5531119"><ele>66.0</ele><time>2026-04-04T09:40:03.577Z</time></trkpt><trkpt lat="45.6496113" lon="11.5531027"><ele>66.0</ele><time>2026-04-04T09:40:05.572Z</time></trkpt><trkpt lat="45.6495237" lon="11.5530915"><ele>66.0</ele><time>2026-04-04T09:40:07.574Z</time></trkpt><trkpt lat="45.6494298" lon="11.5530834"><ele>66.0</ele><time>2026-04-04T09:40:09.573Z</time></trkpt><trkpt lat="45.649337" lon="11.5530964"><ele>66.0</ele><time>2026-04-04T09:40:11.571Z</time></trkpt><trkpt lat="45.6492399" lon="11.5531098"><ele>66.0</ele><time>2026-04-04T09:40:13.58Z</time></trkpt><trkpt lat="45.6491359" lon="11.5531457"><ele>66.0</ele><time>2026-04-04T09:40:15.588Z</time></trkpt><trkpt lat="45.6490292" lon="11.5531878"><ele>66.0</ele><time>2026-04-04T09:40:17.588Z</time></trkpt><trkpt lat="45.6489231" lon="11.5532359"><ele>66.0</ele><time>2026-04-04T09:40:19.589Z</time></trkpt><trkpt lat="45.6488198" lon="11.553304"><ele>66.0</ele><time>2026-04-04T09:40:21.587Z</time></trkpt><trkpt lat="45.6487197" lon="11.5533882"><ele>66.0</ele><time>2026-04-04T09:40:23.589Z</time></trkpt><trkpt lat="45.6486239" lon="11.5534796"><ele>66.0</ele><time>2026-04-04T09:40:25.588Z</time></trkpt><trkpt lat="45.6485316" lon="11.553577"><ele>66.0</ele><time>2026-04-04T09:40:27.587Z</time></trkpt><trkpt lat="45.6484371" lon="11.5536655"><ele>65.75</ele><time>2026-04-04T09:40:29.59Z</time></trkpt><trkpt lat="45.6483395" lon="11.5537617"><ele>65.5</ele><time>2026-04-04T09:40:31.588Z</time></trkpt><trkpt lat="45.6482519" lon="11.5538532"><ele>65.25</ele><time>2026-04-04T09:40:33.592Z</time></trkpt><trkpt lat="45.6481619" lon="11.5539426"><ele>65.0</ele><time>2026-04-04T09:40:35.589Z</time></trkpt><trkpt lat="45.6480696" lon="11.5540393"><ele>65.0</ele><time>2026-04-04T09:40:37.589Z</time></trkpt><trkpt lat="45.6479864" lon="11.5541191"><ele>65.0</ele><time>2026-04-04T09:40:39.574Z</time></trkpt><trkpt lat="45.6479017" lon="11.55419"><ele>65.0</ele><time>2026-04-04T09:40:41.57Z</time></trkpt><trkpt lat="45.6477982" lon="11.5542286"><ele>65.0</ele><time>2026-04-04T09:40:43.591Z</time></trkpt><trkpt lat="45.6476972" lon="11.5542726"><ele>65.0</ele><time>2026-04-04T09:40:45.584Z</time></trkpt><trkpt lat="45.6476213" lon="11.55433"><ele>64.83333333333334</ele><time>2026-04-04T09:40:47.575Z</time></trkpt><trkpt lat="45.6475536" lon="11.5543962"><ele>64.66666666666667</ele><time>2026-04-04T09:40:49.574Z</time></trkpt><trkpt lat="45.6474972" lon="11.5544775"><ele>64.5</ele><time>2026-04-04T09:40:51.575Z</time></trkpt><trkpt lat="45.6474513" lon="11.5545853"><ele>64.33333333333333</ele><time>2026-04-04T09:40:54.586Z</time></trkpt><trkpt lat="45.6474009" lon="11.5546744"><ele>64.16666666666666</ele><time>2026-04-04T09:40:57.584Z</time></trkpt><trkpt lat="45.6473486" lon="11.5547411"><ele>64.0</ele><time>2026-04-04T09:40:59.582Z</time></trkpt><trkpt lat="45.6472853" lon="11.5548148"><ele>63.99999999999999</ele><time>2026-04-04T09:41:01.589Z</time></trkpt><trkpt lat="45.647217" lon="11.5548868"><ele>64.0</ele><time>2026-04-04T09:41:03.594Z</time></trkpt><trkpt lat="45.6471434" lon="11.5549582"><ele>64.0</ele><time>2026-04-04T09:41:05.59Z</time></trkpt><trkpt lat="45.6470738" lon="11.5550246"><ele>64.0</ele><time>2026-04-04T09:41:07.59Z</time></trkpt><trkpt lat="45.6470032" lon="11.5550644"><ele>63.99999999999999</ele><time>2026-04-04T09:41:09.589Z</time></trkpt><trkpt lat="45.6469224" lon="11.5550536"><ele>64.0</ele><time>2026-04-04T09:41:11.588Z</time></trkpt><trkpt lat="45.6468541" lon="11.5550103"><ele>64.16666666666666</ele><time>2026-04-04T09:41:13.591Z</time></trkpt><trkpt lat="45.6467877" lon="11.554963"><ele>64.33333333333333</ele><time>2026-04-04T09:41:15.576Z</time></trkpt><trkpt lat="45.646718" lon="11.5549196"><ele>64.5</ele><time>2026-04-04T09:41:17.589Z</time></trkpt><trkpt lat="45.6466462" lon="11.5548712"><ele>64.66666666666667</ele><time>2026-04-04T09:41:19.581Z</time></trkpt><trkpt lat="45.6465708" lon="11.5548369"><ele>64.83333333333334</ele><time>2026-04-04T09:41:21.586Z</time></trkpt><trkpt lat="45.6464912" lon="11.5548013"><ele>65.0</ele><time>2026-04-04T09:41:23.594Z</time></trkpt><trkpt lat="45.6464089" lon="11.5547539"><ele>65.0</ele><time>2026-04-04T09:41:25.59Z</time></trkpt><trkpt lat="45.6463277" lon="11.5546995"><ele>65.0</ele><time>2026-04-04T09:41:27.589Z</time></trkpt><trkpt lat="45.6462417" lon="11.5546391"><ele>65.0</ele><time>2026-04-04T09:41:29.59Z</time></trkpt><trkpt lat="45.6461603" lon="11.5545857"><ele>65.0</ele><time>2026-04-04T09:41:31.585Z</time></trkpt><trkpt lat="45.6460816" lon="11.5545174"><ele>65.0</ele><time>2026-04-04T09:41:33.593Z</time></trkpt><trkpt lat="45.6460094" lon="11.5544344"><ele>65.0</ele><time>2026-04-04T09:41:35.59Z</time></trkpt><trkpt lat="45.6459362" lon="11.5543356"><ele>65.0</ele><time>2026-04-04T09:41:37.59Z</time></trkpt><trkpt lat="45.6458663" lon="11.5542405"><ele>65.0</ele><time>2026-04-04T09:41:39.592Z</time></trkpt><trkpt lat="45.6457985" lon="11.5541549"><ele>65.0</ele><time>2026-04-04T09:41:41.588Z</time></trkpt><trkpt lat="45.6457271" lon="11.554088"><ele>65.0</ele><time>2026-04-04T09:41:43.591Z</time></trkpt><trkpt lat="45.6456485" lon="11.554035"><ele>65.0</ele><time>2026-04-04T09:41:45.57Z</time></trkpt><trkpt lat="45.6455669" lon="11.5539919"><ele>65.0</ele><time>2026-04-04T09:41:47.587Z</time></trkpt><trkpt lat="45.6454839" lon="11.5539588"><ele>65.0</ele><time>2026-04-04T09:41:49.589Z</time></trkpt><trkpt lat="45.6453977" lon="11.5539271"><ele>65.0</ele><time>2026-04-04T09:41:51.589Z</time></trkpt><trkpt lat="45.6453037" lon="11.5538883"><ele>65.0</ele><time>2026-04-04T09:41:53.591Z</time></trkpt><trkpt lat="45.6452054" lon="11.5538451"><ele>64.6</ele><time>2026-04-04T09:41:55.589Z</time></trkpt><trkpt lat="45.6451102" lon="11.5537963"><ele>64.2</ele><time>2026-04-04T09:41:57.58Z</time></trkpt><trkpt lat="45.6450148" lon="11.5537518"><ele>63.8</ele><time>2026-04-04T09:41:59.59Z</time></trkpt><trkpt lat="45.6449209" lon="11.5537091"><ele>63.4</ele><time>2026-04-04T09:42:01.589Z</time></trkpt><trkpt lat="45.6448335" lon="11.5536591"><ele>63.0</ele><time>2026-04-04T09:42:03.592Z</time></trkpt><trkpt lat="45.6447496" lon="11.5536171"><ele>63.0</ele><time>2026-04-04T09:42:05.574Z</time></trkpt><trkpt lat="45.6446642" lon="11.553576"><ele>63.0</ele><time>2026-04-04T09:42:07.592Z</time></trkpt><trkpt lat="45.6445787" lon="11.5535388"><ele>63.0</ele><time>2026-04-04T09:42:09.589Z</time></trkpt><trkpt lat="45.6444932" lon="11.5534989"><ele>63.0</ele><time>2026-04-04T09:42:11.59Z</time></trkpt><trkpt lat="45.6444027" lon="11.5534572"><ele>63.0</ele><time>2026-04-04T09:42:13.592Z</time></trkpt><trkpt lat="45.6443151" lon="11.553417"><ele>63.0</ele><time>2026-04-04T09:42:15.592Z</time></trkpt><trkpt lat="45.6442277" lon="11.5533749"><ele>63.0</ele><time>2026-04-04T09:42:17.591Z</time></trkpt><trkpt lat="45.6441371" lon="11.5533326"><ele>63.0</ele><time>2026-04-04T09:42:19.59Z</time></trkpt><trkpt lat="45.644047" lon="11.5532877"><ele>63.0</ele><time>2026-04-04T09:42:21.588Z</time></trkpt><trkpt lat="45.6439581" lon="11.5532444"><ele>63.0</ele><time>2026-04-04T09:42:23.591Z</time></trkpt><trkpt lat="45.6438692" lon="11.5532004"><ele>63.0</ele><time>2026-04-04T09:42:25.591Z</time></trkpt><trkpt lat="45.6437774" lon="11.5531547"><ele>63.0</ele><time>2026-04-04T09:42:27.591Z</time></trkpt><trkpt lat="45.6436843" lon="11.5531051"><ele>63.0</ele><time>2026-04-04T09:42:29.591Z</time></trkpt><trkpt lat="45.6435925" lon="11.553057"><ele>63.0</ele><time>2026-04-04T09:42:31.59Z</time></trkpt><trkpt lat="45.6435044" lon="11.553011"><ele>63.0</ele><time>2026-04-04T09:42:33.595Z</time></trkpt><trkpt lat="45.6434182" lon="11.5529524"><ele>63.0</ele><time>2026-04-04T09:42:35.573Z</time></trkpt><trkpt lat="45.6433396" lon="11.5528788"><ele>63.0</ele><time>2026-04-04T09:42:37.575Z</time></trkpt><trkpt lat="45.6432629" lon="11.5528072"><ele>63.0</ele><time>2026-04-04T09:42:39.573Z</time></trkpt><trkpt lat="45.6431841" lon="11.5527243"><ele>63.0</ele><time>2026-04-04T09:42:41.571Z</time></trkpt><trkpt lat="45.6431035" lon="11.5526461"><ele>63.0</ele><time>2026-04-04T09:42:43.576Z</time></trkpt><trkpt lat="45.6430224" lon="11.5525794"><ele>62.8</ele><time>2026-04-04T09:42:45.576Z</time></trkpt><trkpt lat="45.6429405" lon="11.5525047"><ele>62.599999999999994</ele><time>2026-04-04T09:42:47.573Z</time></trkpt><trkpt lat="45.6428547" lon="11.5524238"><ele>62.400000000000006</ele><time>2026-04-04T09:42:49.573Z</time></trkpt><trkpt lat="45.6427691" lon="11.5523494"><ele>62.2</ele><time>2026-04-04T09:42:51.572Z</time></trkpt><trkpt lat="45.6426842" lon="11.5522747"><ele>62.0</ele><time>2026-04-04T09:42:53.575Z</time></trkpt><trkpt lat="45.642596" lon="11.5521958"><ele>62.0</ele><time>2026-04-04T09:42:55.574Z</time></trkpt><trkpt lat="45.6425097" lon="11.5521139"><ele>62.0</ele><time>2026-04-04T09:42:57.573Z</time></trkpt><trkpt lat="45.6424214" lon="11.5520261"><ele>62.0</ele><time>2026-04-04T09:42:59.574Z</time></trkpt><trkpt lat="45.6423347" lon="11.5519468"><ele>62.0</ele><time>2026-04-04T09:43:01.571Z</time></trkpt><trkpt lat="45.6422467" lon="11.5518696"><ele>62.0</ele><time>2026-04-04T09:43:03.575Z</time></trkpt><trkpt lat="45.6421589" lon="11.5517974"><ele>61.8</ele><time>2026-04-04T09:43:05.574Z</time></trkpt><trkpt lat="45.6420689" lon="11.5517554"><ele>61.6</ele><time>2026-04-04T09:43:07.573Z</time></trkpt><trkpt lat="45.6419696" lon="11.5517328"><ele>61.39999999999999</ele><time>2026-04-04T09:43:09.572Z</time></trkpt><trkpt lat="45.6418652" lon="11.5517117"><ele>61.199999999999996</ele><time>2026-04-04T09:43:11.571Z</time></trkpt><trkpt lat="45.6417612" lon="11.551692"><ele>61.0</ele><time>2026-04-04T09:43:13.576Z</time></trkpt><trkpt lat="45.64166" lon="11.5516558"><ele>60.599999999999994</ele><time>2026-04-04T09:43:15.573Z</time></trkpt><trkpt lat="45.6415612" lon="11.5516246"><ele>60.199999999999996</ele><time>2026-04-04T09:43:17.573Z</time></trkpt><trkpt lat="45.6414636" lon="11.5515983"><ele>59.800000000000004</ele><time>2026-04-04T09:43:19.572Z</time></trkpt><trkpt lat="45.6413721" lon="11.5515635"><ele>59.400000000000006</ele><time>2026-04-04T09:43:21.57Z</time></trkpt><trkpt lat="45.641279" lon="11.5515246"><ele>59.0</ele><time>2026-04-04T09:43:23.575Z</time></trkpt><trkpt lat="45.6411821" lon="11.5514898"><ele>59.0</ele><time>2026-04-04T09:43:25.567Z</time></trkpt><trkpt lat="45.6410878" lon="11.5514584"><ele>59.00000000000001</ele><time>2026-04-04T09:43:27.572Z</time></trkpt><trkpt lat="45.6409964" lon="11.5514217"><ele>59.00000000000001</ele><time>2026-04-04T09:43:29.572Z</time></trkpt><trkpt lat="45.6409042" lon="11.5513824"><ele>59.0</ele><time>2026-04-04T09:43:31.573Z</time></trkpt><trkpt lat="45.6408171" lon="11.5513492"><ele>59.0</ele><time>2026-04-04T09:43:33.574Z</time></trkpt><trkpt lat="45.6407323" lon="11.5513223"><ele>59.00000000000001</ele><time>2026-04-04T09:43:35.571Z</time></trkpt><trkpt lat="45.6406434" lon="11.5512978"><ele>59.0</ele><time>2026-04-04T09:43:37.571Z</time></trkpt><trkpt lat="45.6405621" lon="11.5512688"><ele>59.0</ele><time>2026-04-04T09:43:39.572Z</time></trkpt><trkpt lat="45.6404755" lon="11.55124"><ele>59.0</ele><time>2026-04-04T09:43:41.573Z</time></trkpt><trkpt lat="45.6403836" lon="11.5512125"><ele>59.00000000000001</ele><time>2026-04-04T09:43:43.578Z</time></trkpt><trkpt lat="45.6402924" lon="11.5511987"><ele>59.0</ele><time>2026-04-04T09:43:45.573Z</time></trkpt><trkpt lat="45.6402054" lon="11.5512022"><ele>59.00000000000001</ele><time>2026-04-04T09:43:47.574Z</time></trkpt><trkpt lat="45.6401389" lon="11.5512099"><ele>59.0</ele><time>2026-04-04T09:43:49.574Z</time></trkpt><trkpt lat="45.6400503" lon="11.5512206"><ele>59.0</ele><time>2026-04-04T09:43:52.573Z</time></trkpt><trkpt lat="45.6399785" lon="11.5512328"><ele>59.0</ele><time>2026-04-04T09:43:56.572Z</time></trkpt><trkpt lat="45.6399141" lon="11.5512465"><ele>59.00000000000001</ele><time>2026-04-04T09:44:52.574Z</time></trkpt><trkpt lat="45.6398198" lon="11.5512449"><ele>59.0</ele><time>2026-04-04T09:44:55.577Z</time></trkpt><trkpt lat="45.6397188" lon="11.5512603"><ele>59.0</ele><time>2026-04-04T09:44:57.588Z</time></trkpt><trkpt lat="45.6396203" lon="11.5512651"><ele>59.00000000000001</ele><time>2026-04-04T09:44:59.583Z</time></trkpt><trkpt lat="45.6395166" lon="11.5512282"><ele>59.00000000000001</ele><time>2026-04-04T09:45:01.59Z</time></trkpt><trkpt lat="45.6394196" lon="11.5511787"><ele>59.0</ele><time>2026-04-04T09:45:03.576Z</time></trkpt><trkpt lat="45.6393239" lon="11.5511274"><ele>59.0</ele><time>2026-04-04T09:45:05.585Z</time></trkpt><trkpt lat="45.6392267" lon="11.5510645"><ele>59.0</ele><time>2026-04-04T09:45:07.578Z</time></trkpt><trkpt lat="45.6391309" lon="11.5510045"><ele>59.00000000000001</ele><time>2026-04-04T09:45:09.575Z</time></trkpt><trkpt lat="45.6390351" lon="11.550947"><ele>59.00000000000001</ele><time>2026-04-04T09:45:11.581Z</time></trkpt><trkpt lat="45.6389403" lon="11.5508833"><ele>59.0</ele><time>2026-04-04T09:45:13.576Z</time></trkpt><trkpt lat="45.6388473" lon="11.5508187"><ele>59.0</ele><time>2026-04-04T09:45:15.588Z</time></trkpt><trkpt lat="45.638752" lon="11.5507547"><ele>59.0</ele><time>2026-04-04T09:45:17.583Z</time></trkpt><trkpt lat="45.6386527" lon="11.550686"><ele>59.00000000000001</ele><time>2026-04-04T09:45:19.585Z</time></trkpt><trkpt lat="45.6385607" lon="11.5506111"><ele>59.00000000000001</ele><time>2026-04-04T09:45:21.588Z</time></trkpt><trkpt lat="45.6384679" lon="11.5505425"><ele>59.0</ele><time>2026-04-04T09:45:23.591Z</time></trkpt><trkpt lat="45.6383643" lon="11.5504754"><ele>59.0</ele><time>2026-04-04T09:45:25.588Z</time></trkpt><trkpt lat="45.6382607" lon="11.5504075"><ele>58.800000000000004</ele><time>2026-04-04T09:45:27.588Z</time></trkpt><trkpt lat="45.6381561" lon="11.5503412"><ele>58.60000000000001</ele><time>2026-04-04T09:45:29.587Z</time></trkpt><trkpt lat="45.63806" lon="11.5502746"><ele>58.4</ele><time>2026-04-04T09:45:31.588Z</time></trkpt><trkpt lat="45.6379708" lon="11.5502031"><ele>58.2</ele><time>2026-04-04T09:45:33.589Z</time></trkpt><trkpt lat="45.6378817" lon="11.5501388"><ele>58.0</ele><time>2026-04-04T09:45:35.587Z</time></trkpt><trkpt lat="45.6377935" lon="11.5500793"><ele>58.4</ele><time>2026-04-04T09:45:37.574Z</time></trkpt><trkpt lat="45.6377028" lon="11.5500214"><ele>58.8</ele><time>2026-04-04T09:45:39.586Z</time></trkpt><trkpt lat="45.6376069" lon="11.5499686"><ele>59.2</ele><time>2026-04-04T09:45:41.587Z</time></trkpt><trkpt lat="45.6375112" lon="11.5499099"><ele>59.6</ele><time>2026-04-04T09:45:43.588Z</time></trkpt><trkpt lat="45.6374153" lon="11.5498495"><ele>60.0</ele><time>2026-04-04T09:45:45.59Z</time></trkpt><trkpt lat="45.6373253" lon="11.5497923"><ele>60.0</ele><time>2026-04-04T09:45:47.587Z</time></trkpt><trkpt lat="45.6372449" lon="11.5497453"><ele>60.0</ele><time>2026-04-04T09:45:49.589Z</time></trkpt><trkpt lat="45.6371588" lon="11.5497057"><ele>60.0</ele><time>2026-04-04T09:45:51.587Z</time></trkpt><trkpt lat="45.6370702" lon="11.5496442"><ele>60.0</ele><time>2026-04-04T09:45:53.588Z</time></trkpt><trkpt lat="45.6369816" lon="11.5495843"><ele>60.0</ele><time>2026-04-04T09:45:55.586Z</time></trkpt><trkpt lat="45.6368873" lon="11.5495221"><ele>59.6</ele><time>2026-04-04T09:45:57.586Z</time></trkpt><trkpt lat="45.636803" lon="11.5494613"><ele>59.2</ele><time>2026-04-04T09:45:59.585Z</time></trkpt><trkpt lat="45.6367213" lon="11.549389"><ele>58.8</ele><time>2026-04-04T09:46:01.581Z</time></trkpt><trkpt lat="45.6366383" lon="11.5493117"><ele>58.4</ele><time>2026-04-04T09:46:03.586Z</time></trkpt><trkpt lat="45.6365539" lon="11.5492414"><ele>58.0</ele><time>2026-04-04T09:46:05.588Z</time></trkpt><trkpt lat="45.6364769" lon="11.5491806"><ele>58.0</ele><time>2026-04-04T09:46:07.581Z</time></trkpt><trkpt lat="45.6363859" lon="11.5491246"><ele>58.0</ele><time>2026-04-04T09:46:09.575Z</time></trkpt><trkpt lat="45.6362945" lon="11.5490724"><ele>58.0</ele><time>2026-04-04T09:46:11.582Z</time></trkpt><trkpt lat="45.6361999" lon="11.5490143"><ele>58.0</ele><time>2026-04-04T09:46:13.582Z</time></trkpt><trkpt lat="45.6361024" lon="11.5489564"><ele>58.0</ele><time>2026-04-04T09:46:15.585Z</time></trkpt><trkpt lat="45.6360111" lon="11.5489356"><ele>58.0</ele><time>2026-04-04T09:46:17.586Z</time></trkpt><trkpt lat="45.6359244" lon="11.5488936"><ele>58.0</ele><time>2026-04-04T09:46:19.586Z</time></trkpt><trkpt lat="45.6358211" lon="11.5488501"><ele>58.0</ele><time>2026-04-04T09:46:21.58Z</time></trkpt><trkpt lat="45.6357144" lon="11.5488101"><ele>58.0</ele><time>2026-04-04T09:46:23.586Z</time></trkpt><trkpt lat="45.6356089" lon="11.5487612"><ele>58.0</ele><time>2026-04-04T09:46:25.585Z</time></trkpt><trkpt lat="45.6355242" lon="11.5486794"><ele>58.0</ele><time>2026-04-04T09:46:27.584Z</time></trkpt><trkpt lat="45.6354484" lon="11.5485948"><ele>58.0</ele><time>2026-04-04T09:46:29.588Z</time></trkpt><trkpt lat="45.6353657" lon="11.5485985"><ele>58.0</ele><time>2026-04-04T09:46:31.575Z</time></trkpt><trkpt lat="45.6352729" lon="11.5486742"><ele>58.0</ele><time>2026-04-04T09:46:33.587Z</time></trkpt><trkpt lat="45.6351844" lon="11.5487322"><ele>58.0</ele><time>2026-04-04T09:46:35.58Z</time></trkpt><trkpt lat="45.6350951" lon="11.5487685"><ele>57.666666666666664</ele><time>2026-04-04T09:46:37.587Z</time></trkpt><trkpt lat="45.6350173" lon="11.5487557"><ele>57.33333333333333</ele><time>2026-04-04T09:46:39.589Z</time></trkpt><trkpt lat="45.6349719" lon="11.5486604"><ele>57.0</ele><time>2026-04-04T09:46:41.582Z</time></trkpt><trkpt lat="45.634954" lon="11.5485421"><ele>56.66666666666667</ele><time>2026-04-04T09:46:43.588Z</time></trkpt><trkpt lat="45.6349274" lon="11.5484192"><ele>56.333333333333336</ele><time>2026-04-04T09:46:45.585Z</time></trkpt><trkpt lat="45.6348962" lon="11.548317"><ele>56.0</ele><time>2026-04-04T09:46:47.587Z</time></trkpt><trkpt lat="45.6348682" lon="11.5482191"><ele>56.00000000000001</ele><time>2026-04-04T09:46:49.585Z</time></trkpt><trkpt lat="45.634826" lon="11.5481165"><ele>56.0</ele><time>2026-04-04T09:46:51.587Z</time></trkpt><trkpt lat="45.6347828" lon="11.5480054"><ele>56.0</ele><time>2026-04-04T09:46:53.59Z</time></trkpt><trkpt lat="45.6347344" lon="11.5478947"><ele>56.0</ele><time>2026-04-04T09:46:55.588Z</time></trkpt><trkpt lat="45.6346918" lon="11.5477857"><ele>56.00000000000001</ele><time>2026-04-04T09:46:57.583Z</time></trkpt><trkpt lat="45.6346403" lon="11.5476721"><ele>56.0</ele><time>2026-04-04T09:46:59.587Z</time></trkpt><trkpt lat="45.6345818" lon="11.5475779"><ele>56.16666666666667</ele><time>2026-04-04T09:47:01.585Z</time></trkpt><trkpt lat="45.6345146" lon="11.547506"><ele>56.333333333333336</ele><time>2026-04-04T09:47:03.582Z</time></trkpt><trkpt lat="45.6344411" lon="11.5474389"><ele>56.5</ele><time>2026-04-04T09:47:05.583Z</time></trkpt><trkpt lat="45.6343566" lon="11.5474109"><ele>56.66666666666667</ele><time>2026-04-04T09:47:07.582Z</time></trkpt><trkpt lat="45.6342647" lon="11.5473871"><ele>56.833333333333336</ele><time>2026-04-04T09:47:09.583Z</time></trkpt><trkpt lat="45.6341697" lon="11.5473673"><ele>57.0</ele><time>2026-04-04T09:47:11.585Z</time></trkpt><trkpt lat="45.6340783" lon="11.5473503"><ele>56.5</ele><time>2026-04-04T09:47:13.585Z</time></trkpt><trkpt lat="45.6339917" lon="11.5473218"><ele>56.0</ele><time>2026-04-04T09:47:15.587Z</time></trkpt><trkpt lat="45.6339101" lon="11.5472875"><ele>55.5</ele><time>2026-04-04T09:47:17.591Z</time></trkpt><trkpt lat="45.6338421" lon="11.5472589"><ele>55.0</ele><time>2026-04-04T09:47:19.584Z</time></trkpt><trkpt lat="45.6337633" lon="11.5472013"><ele>54.5</ele><time>2026-04-04T09:47:21.583Z</time></trkpt><trkpt lat="45.6336736" lon="11.5471412"><ele>54.0</ele><time>2026-04-04T09:47:23.59Z</time></trkpt><trkpt lat="45.6335757" lon="11.5470969"><ele>53.800000000000004</ele><time>2026-04-04T09:47:25.586Z</time></trkpt><trkpt lat="45.6334695" lon="11.5470443"><ele>53.60000000000001</ele><time>2026-04-04T09:47:27.582Z</time></trkpt><trkpt lat="45.633367" lon="11.546995"><ele>53.4</ele><time>2026-04-04T09:47:29.59Z</time></trkpt><trkpt lat="45.6332759" lon="11.5469487"><ele>53.2</ele><time>2026-04-04T09:47:31.577Z</time></trkpt><trkpt lat="45.6331741" lon="11.5469076"><ele>53.0</ele><time>2026-04-04T09:47:33.586Z</time></trkpt><trkpt lat="45.633083" lon="11.5468661"><ele>52.8</ele><time>2026-04-04T09:47:35.583Z</time></trkpt><trkpt lat="45.6329948" lon="11.5468096"><ele>52.599999999999994</ele><time>2026-04-04T09:47:37.581Z</time></trkpt><trkpt lat="45.6329119" lon="11.5467246"><ele>52.400000000000006</ele><time>2026-04-04T09:47:39.588Z</time></trkpt><trkpt lat="45.6328694" lon="11.5465954"><ele>52.2</ele><time>2026-04-04T09:47:41.586Z</time></trkpt><trkpt lat="45.6328503" lon="11.546462"><ele>52.0</ele><time>2026-04-04T09:47:43.588Z</time></trkpt><trkpt lat="45.6328281" lon="11.546341"><ele>52.0</ele><time>2026-04-04T09:47:45.586Z</time></trkpt><trkpt lat="45.6328092" lon="11.5462075"><ele>52.0</ele><time>2026-04-04T09:47:47.581Z</time></trkpt><trkpt lat="45.6327858" lon="11.5460791"><ele>52.0</ele><time>2026-04-04T09:47:49.583Z</time></trkpt><trkpt lat="45.6327489" lon="11.5459327"><ele>52.0</ele><time>2026-04-04T09:47:51.585Z</time></trkpt><trkpt lat="45.632715" lon="11.545795"><ele>52.0</ele><time>2026-04-04T09:47:53.587Z</time></trkpt><trkpt lat="45.6326863" lon="11.5456677"><ele>52.0</ele><time>2026-04-04T09:47:55.59Z</time></trkpt><trkpt lat="45.6326512" lon="11.545522"><ele>52.0</ele><time>2026-04-04T09:47:57.587Z</time></trkpt><trkpt lat="45.632597" lon="11.5454058"><ele>52.0</ele><time>2026-04-04T09:47:59.584Z</time></trkpt><trkpt lat="45.6325102" lon="11.5453442"><ele>52.0</ele><time>2026-04-04T09:48:01.582Z</time></trkpt><trkpt lat="45.6324055" lon="11.5453455"><ele>52.0</ele><time>2026-04-04T09:48:03.589Z</time></trkpt><trkpt lat="45.6323073" lon="11.5453404"><ele>51.8</ele><time>2026-04-04T09:48:05.578Z</time></trkpt><trkpt lat="45.6322095" lon="11.5453357"><ele>51.6</ele><time>2026-04-04T09:48:07.575Z</time></trkpt><trkpt lat="45.632113" lon="11.5453266"><ele>51.4</ele><time>2026-04-04T09:48:09.587Z</time></trkpt><trkpt lat="45.6320186" lon="11.5453188"><ele>51.199999999999996</ele><time>2026-04-04T09:48:11.584Z</time></trkpt><trkpt lat="45.631923" lon="11.5453027"><ele>51.0</ele><time>2026-04-04T09:48:13.587Z</time></trkpt><trkpt lat="45.6318349" lon="11.5452919"><ele>51.0</ele><time>2026-04-04T09:48:15.588Z</time></trkpt><trkpt lat="45.631757" lon="11.545261"><ele>51.0</ele><time>2026-04-04T09:48:17.575Z</time></trkpt><trkpt lat="45.63172" lon="11.5451603"><ele>51.0</ele><time>2026-04-04T09:48:19.579Z</time></trkpt><trkpt lat="45.6317398" lon="11.5450634"><ele>51.0</ele><time>2026-04-04T09:48:21.587Z</time></trkpt><trkpt lat="45.6317542" lon="11.5449699"><ele>51.0</ele><time>2026-04-04T09:48:23.59Z</time></trkpt><trkpt lat="45.6317573" lon="11.5448648"><ele>51.0</ele><time>2026-04-04T09:48:26.589Z</time></trkpt></trkseg></trk></gpx>